<?xml version="1.0" encoding="UTF-8" standalone="no" ?>
<gpx xmlns="http://www.topografix.com/GPX/1/1" xmlns:xsi="http://www.w3.org/2001/XMLSchema-instance" xsi:schemaLocation="http://www.topografix.com/GPX/1/1 http://www.topografix.com/GPX/1/1/gpx.xsd" version="1.1" creator="VisuGPX - https://www.visugpx.com">
  <metadata>
    <name>Tréfeuntec</name>
    <desc><![CDATA[Départ plage du Ry à Douarnenez (29100), la mer à gauche, suivre la D 7 jusqu\'au premier carrefour, et monter à gauche, tournez à gauche  à l\'angle de la maison, et suivre la route, jusque l\'entrée sur le sentier GR 34, et suivre le long de la falaise, jusque l\'anse de Tréfeuntec, prendre la route au fond du parking. Monter, passez la stèle J. M Le Bris, au carrefour, tournez à droite, et continuer un moment sur la rte, tourner à droite dans un chemin, rejoignez le GR, et retour au parking   ]]></desc>
  </metadata>
  <trk>
    <name><![CDATA[Tréfeuntec]]></name>
    <trkseg>
      <trkpt lat="48.08657" lon="-4.29879">
        <ele>65.99</ele>
        <time>2011-07-08T12:12:17Z</time>
      </trkpt>
      <trkpt lat="48.08651" lon="-4.29857">
        <ele>59.74</ele>
        <time>2011-07-08T12:12:20Z</time>
      </trkpt>
      <trkpt lat="48.08637" lon="-4.29859">
        <ele>61.18</ele>
        <time>2011-07-08T12:12:27Z</time>
      </trkpt>
      <trkpt lat="48.0864" lon="-4.29879">
        <ele>64.55</ele>
        <time>2011-07-08T12:12:43Z</time>
      </trkpt>
      <trkpt lat="48.08647" lon="-4.29892">
        <ele>60.22</ele>
        <time>2011-07-08T12:12:59Z</time>
      </trkpt>
      <trkpt lat="48.0865" lon="-4.29899">
        <ele>60.22</ele>
        <time>2011-07-08T12:13:04Z</time>
      </trkpt>
      <trkpt lat="48.08653" lon="-4.29907">
        <ele>57.82</ele>
        <time>2011-07-08T12:13:10Z</time>
      </trkpt>
      <trkpt lat="48.0866" lon="-4.29931">
        <ele>59.74</ele>
        <time>2011-07-08T12:13:27Z</time>
      </trkpt>
      <trkpt lat="48.08672" lon="-4.29956">
        <ele>59.26</ele>
        <time>2011-07-08T12:13:42Z</time>
      </trkpt>
      <trkpt lat="48.08675" lon="-4.29961">
        <ele>56.37</ele>
        <time>2011-07-08T12:13:48Z</time>
      </trkpt>
      <trkpt lat="48.08683" lon="-4.29967">
        <ele>50.13</ele>
        <time>2011-07-08T12:14:03Z</time>
      </trkpt>
      <trkpt lat="48.08683" lon="-4.29967">
        <ele>50.13</ele>
        <time>2011-07-08T12:14:23Z</time>
      </trkpt>
      <trkpt lat="48.08683" lon="-4.29967">
        <ele>50.13</ele>
        <time>2011-07-08T12:14:38Z</time>
      </trkpt>
      <trkpt lat="48.08684" lon="-4.29971">
        <ele>43.4</ele>
        <time>2011-07-08T12:14:54Z</time>
      </trkpt>
      <trkpt lat="48.08702" lon="-4.29977">
        <ele>28.98</ele>
        <time>2011-07-08T12:15:08Z</time>
      </trkpt>
      <trkpt lat="48.08715" lon="-4.29983">
        <ele>21.29</ele>
        <time>2011-07-08T12:15:22Z</time>
      </trkpt>
      <trkpt lat="48.08725" lon="-4.29984">
        <ele>18.4</ele>
        <time>2011-07-08T12:15:35Z</time>
      </trkpt>
      <trkpt lat="48.08744" lon="-4.29988">
        <ele>15.04</ele>
        <time>2011-07-08T12:15:45Z</time>
      </trkpt>
      <trkpt lat="48.08762" lon="-4.29985">
        <ele>13.12</ele>
        <time>2011-07-08T12:15:54Z</time>
      </trkpt>
      <trkpt lat="48.0879" lon="-4.29986">
        <ele>13.12</ele>
        <time>2011-07-08T12:16:11Z</time>
      </trkpt>
      <trkpt lat="48.08811" lon="-4.29977">
        <ele>14.08</ele>
        <time>2011-07-08T12:16:25Z</time>
      </trkpt>
      <trkpt lat="48.08844" lon="-4.29968">
        <ele>15.04</ele>
        <time>2011-07-08T12:16:39Z</time>
      </trkpt>
      <trkpt lat="48.0886" lon="-4.29963">
        <ele>13.6</ele>
        <time>2011-07-08T12:16:55Z</time>
      </trkpt>
      <trkpt lat="48.08868" lon="-4.29961">
        <ele>12.63</ele>
        <time>2011-07-08T12:17:08Z</time>
      </trkpt>
      <trkpt lat="48.08883" lon="-4.29958">
        <ele>11.19</ele>
        <time>2011-07-08T12:17:20Z</time>
      </trkpt>
      <trkpt lat="48.089" lon="-4.2996">
        <ele>11.19</ele>
        <time>2011-07-08T12:17:34Z</time>
      </trkpt>
      <trkpt lat="48.08907" lon="-4.29962">
        <ele>9.75</ele>
        <time>2011-07-08T12:17:51Z</time>
      </trkpt>
      <trkpt lat="48.08917" lon="-4.29966">
        <ele>6.87</ele>
        <time>2011-07-08T12:18:00Z</time>
      </trkpt>
      <trkpt lat="48.08943" lon="-4.29979">
        <ele>1.58</ele>
        <time>2011-07-08T12:18:16Z</time>
      </trkpt>
      <trkpt lat="48.08959" lon="-4.29981">
        <ele>0.62</ele>
        <time>2011-07-08T12:18:21Z</time>
      </trkpt>
      <trkpt lat="48.08992" lon="-4.30012">
        <ele>-0.34</ele>
        <time>2011-07-08T12:18:36Z</time>
      </trkpt>
      <trkpt lat="48.08993" lon="-4.30011">
        <ele>-0.34</ele>
        <time>2011-07-08T12:18:39Z</time>
      </trkpt>
      <trkpt lat="48.08995" lon="-4.30004">
        <ele>0.62</ele>
        <time>2011-07-08T12:18:44Z</time>
      </trkpt>
      <trkpt lat="48.08995" lon="-4.29999">
        <ele>1.1</ele>
        <time>2011-07-08T12:18:47Z</time>
      </trkpt>
      <trkpt lat="48.08994" lon="-4.29994">
        <ele>0.62</ele>
        <time>2011-07-08T12:18:50Z</time>
      </trkpt>
      <trkpt lat="48.08998" lon="-4.2997">
        <ele>0.62</ele>
        <time>2011-07-08T12:19:04Z</time>
      </trkpt>
      <trkpt lat="48.09011" lon="-4.29943">
        <ele>5.91</ele>
        <time>2011-07-08T12:19:20Z</time>
      </trkpt>
      <trkpt lat="48.09014" lon="-4.29924">
        <ele>5.91</ele>
        <time>2011-07-08T12:19:33Z</time>
      </trkpt>
      <trkpt lat="48.09017" lon="-4.29917">
        <ele>4.46</ele>
        <time>2011-07-08T12:19:39Z</time>
      </trkpt>
      <trkpt lat="48.09021" lon="-4.2991">
        <ele>3.5</ele>
        <time>2011-07-08T12:19:45Z</time>
      </trkpt>
      <trkpt lat="48.09025" lon="-4.29908">
        <ele>2.54</ele>
        <time>2011-07-08T12:19:51Z</time>
      </trkpt>
      <trkpt lat="48.09028" lon="-4.29902">
        <ele>1.58</ele>
        <time>2011-07-08T12:19:55Z</time>
      </trkpt>
      <trkpt lat="48.09028" lon="-4.29895">
        <ele>0.14</ele>
        <time>2011-07-08T12:19:59Z</time>
      </trkpt>
      <trkpt lat="48.09029" lon="-4.29876">
        <ele>-5.15</ele>
        <time>2011-07-08T12:20:11Z</time>
      </trkpt>
      <trkpt lat="48.09026" lon="-4.29859">
        <ele>-11.4</ele>
        <time>2011-07-08T12:20:25Z</time>
      </trkpt>
      <trkpt lat="48.09035" lon="-4.29833">
        <ele>-20.05</ele>
        <time>2011-07-08T12:20:38Z</time>
      </trkpt>
      <trkpt lat="48.09045" lon="-4.29818">
        <ele>-23.41</ele>
        <time>2011-07-08T12:20:49Z</time>
      </trkpt>
      <trkpt lat="48.09051" lon="-4.29809">
        <ele>-24.38</ele>
        <time>2011-07-08T12:20:56Z</time>
      </trkpt>
      <trkpt lat="48.09053" lon="-4.29807">
        <ele>-23.9</ele>
        <time>2011-07-08T12:20:58Z</time>
      </trkpt>
      <trkpt lat="48.0907" lon="-4.29792">
        <ele>-22.93</ele>
        <time>2011-07-08T12:21:12Z</time>
      </trkpt>
      <trkpt lat="48.09094" lon="-4.29777">
        <ele>-17.65</ele>
        <time>2011-07-08T12:21:27Z</time>
      </trkpt>
      <trkpt lat="48.09105" lon="-4.29763">
        <ele>-17.17</ele>
        <time>2011-07-08T12:21:38Z</time>
      </trkpt>
      <trkpt lat="48.09115" lon="-4.29748">
        <ele>-17.17</ele>
        <time>2011-07-08T12:21:50Z</time>
      </trkpt>
      <trkpt lat="48.09119" lon="-4.29745">
        <ele>-16.21</ele>
        <time>2011-07-08T12:21:53Z</time>
      </trkpt>
      <trkpt lat="48.09138" lon="-4.29728">
        <ele>-13.8</ele>
        <time>2011-07-08T12:22:08Z</time>
      </trkpt>
      <trkpt lat="48.09144" lon="-4.29721">
        <ele>-13.8</ele>
        <time>2011-07-08T12:22:14Z</time>
      </trkpt>
      <trkpt lat="48.09158" lon="-4.29701">
        <ele>-14.76</ele>
        <time>2011-07-08T12:22:29Z</time>
      </trkpt>
      <trkpt lat="48.09162" lon="-4.29696">
        <ele>-16.21</ele>
        <time>2011-07-08T12:22:33Z</time>
      </trkpt>
      <trkpt lat="48.09171" lon="-4.29672">
        <ele>-21.01</ele>
        <time>2011-07-08T12:22:50Z</time>
      </trkpt>
      <trkpt lat="48.09174" lon="-4.2967">
        <ele>-21.01</ele>
        <time>2011-07-08T12:22:52Z</time>
      </trkpt>
      <trkpt lat="48.0918" lon="-4.29656">
        <ele>-21.01</ele>
        <time>2011-07-08T12:23:01Z</time>
      </trkpt>
      <trkpt lat="48.09187" lon="-4.2964">
        <ele>-22.45</ele>
        <time>2011-07-08T12:23:13Z</time>
      </trkpt>
      <trkpt lat="48.09193" lon="-4.29625">
        <ele>-25.34</ele>
        <time>2011-07-08T12:23:25Z</time>
      </trkpt>
      <trkpt lat="48.09208" lon="-4.29603">
        <ele>-21.97</ele>
        <time>2011-07-08T12:23:39Z</time>
      </trkpt>
      <trkpt lat="48.09225" lon="-4.29593">
        <ele>-17.65</ele>
        <time>2011-07-08T12:23:49Z</time>
      </trkpt>
      <trkpt lat="48.09236" lon="-4.29569">
        <ele>-11.4</ele>
        <time>2011-07-08T12:24:02Z</time>
      </trkpt>
      <trkpt lat="48.09241" lon="-4.29556">
        <ele>-9.96</ele>
        <time>2011-07-08T12:24:13Z</time>
      </trkpt>
      <trkpt lat="48.09244" lon="-4.29541">
        <ele>-9.48</ele>
        <time>2011-07-08T12:24:24Z</time>
      </trkpt>
      <trkpt lat="48.09246" lon="-4.29518">
        <ele>-9.96</ele>
        <time>2011-07-08T12:24:36Z</time>
      </trkpt>
      <trkpt lat="48.09246" lon="-4.29495">
        <ele>-9.48</ele>
        <time>2011-07-08T12:24:49Z</time>
      </trkpt>
      <trkpt lat="48.09248" lon="-4.2948">
        <ele>-9</ele>
        <time>2011-07-08T12:25:00Z</time>
      </trkpt>
      <trkpt lat="48.09249" lon="-4.29474">
        <ele>-8.03</ele>
        <time>2011-07-08T12:25:04Z</time>
      </trkpt>
      <trkpt lat="48.09252" lon="-4.29461">
        <ele>-6.11</ele>
        <time>2011-07-08T12:25:12Z</time>
      </trkpt>
      <trkpt lat="48.09257" lon="-4.2945">
        <ele>-5.15</ele>
        <time>2011-07-08T12:25:21Z</time>
      </trkpt>
      <trkpt lat="48.09263" lon="-4.29434">
        <ele>-5.63</ele>
        <time>2011-07-08T12:25:34Z</time>
      </trkpt>
      <trkpt lat="48.09268" lon="-4.29417">
        <ele>-3.71</ele>
        <time>2011-07-08T12:25:46Z</time>
      </trkpt>
      <trkpt lat="48.09269" lon="-4.29398">
        <ele>-0.34</ele>
        <time>2011-07-08T12:25:52Z</time>
      </trkpt>
      <trkpt lat="48.0927" lon="-4.29392">
        <ele>-0.82</ele>
        <time>2011-07-08T12:25:56Z</time>
      </trkpt>
      <trkpt lat="48.09277" lon="-4.29385">
        <ele>-1.3</ele>
        <time>2011-07-08T12:26:07Z</time>
      </trkpt>
      <trkpt lat="48.09283" lon="-4.29376">
        <ele>-3.23</ele>
        <time>2011-07-08T12:26:22Z</time>
      </trkpt>
      <trkpt lat="48.09283" lon="-4.29376">
        <ele>-3.23</ele>
        <time>2011-07-08T12:26:29Z</time>
      </trkpt>
      <trkpt lat="48.09289" lon="-4.29374">
        <ele>-5.15</ele>
        <time>2011-07-08T12:26:39Z</time>
      </trkpt>
      <trkpt lat="48.09287" lon="-4.2934">
        <ele>-1.3</ele>
        <time>2011-07-08T12:26:51Z</time>
      </trkpt>
      <trkpt lat="48.09297" lon="-4.29324">
        <ele>1.58</ele>
        <time>2011-07-08T12:27:03Z</time>
      </trkpt>
      <trkpt lat="48.093" lon="-4.29309">
        <ele>5.42</ele>
        <time>2011-07-08T12:27:16Z</time>
      </trkpt>
      <trkpt lat="48.09303" lon="-4.29308">
        <ele>6.39</ele>
        <time>2011-07-08T12:27:22Z</time>
      </trkpt>
      <trkpt lat="48.09306" lon="-4.29307">
        <ele>7.83</ele>
        <time>2011-07-08T12:27:25Z</time>
      </trkpt>
      <trkpt lat="48.09322" lon="-4.29325">
        <ele>10.23</ele>
        <time>2011-07-08T12:27:40Z</time>
      </trkpt>
      <trkpt lat="48.09325" lon="-4.29335">
        <ele>10.71</ele>
        <time>2011-07-08T12:27:46Z</time>
      </trkpt>
      <trkpt lat="48.09328" lon="-4.29342">
        <ele>12.15</ele>
        <time>2011-07-08T12:27:53Z</time>
      </trkpt>
      <trkpt lat="48.09334" lon="-4.29349">
        <ele>16</ele>
        <time>2011-07-08T12:27:58Z</time>
      </trkpt>
      <trkpt lat="48.09341" lon="-4.29366">
        <ele>25.13</ele>
        <time>2011-07-08T12:28:08Z</time>
      </trkpt>
      <trkpt lat="48.0934" lon="-4.29367">
        <ele>26.09</ele>
        <time>2011-07-08T12:28:15Z</time>
      </trkpt>
      <trkpt lat="48.09343" lon="-4.29372">
        <ele>26.57</ele>
        <time>2011-07-08T12:28:19Z</time>
      </trkpt>
      <trkpt lat="48.09352" lon="-4.29401">
        <ele>30.42</ele>
        <time>2011-07-08T12:28:36Z</time>
      </trkpt>
      <trkpt lat="48.09356" lon="-4.29427">
        <ele>32.34</ele>
        <time>2011-07-08T12:28:51Z</time>
      </trkpt>
      <trkpt lat="48.09356" lon="-4.29443">
        <ele>32.82</ele>
        <time>2011-07-08T12:28:59Z</time>
      </trkpt>
      <trkpt lat="48.09355" lon="-4.2945">
        <ele>32.34</ele>
        <time>2011-07-08T12:29:15Z</time>
      </trkpt>
      <trkpt lat="48.09356" lon="-4.29455">
        <ele>32.34</ele>
        <time>2011-07-08T12:29:22Z</time>
      </trkpt>
      <trkpt lat="48.09366" lon="-4.29469">
        <ele>32.34</ele>
        <time>2011-07-08T12:29:37Z</time>
      </trkpt>
      <trkpt lat="48.09366" lon="-4.29471">
        <ele>32.34</ele>
        <time>2011-07-08T12:29:38Z</time>
      </trkpt>
      <trkpt lat="48.09372" lon="-4.29481">
        <ele>35.23</ele>
        <time>2011-07-08T12:29:43Z</time>
      </trkpt>
      <trkpt lat="48.09385" lon="-4.29482">
        <ele>40.51</ele>
        <time>2011-07-08T12:29:53Z</time>
      </trkpt>
      <trkpt lat="48.09403" lon="-4.2947">
        <ele>44.36</ele>
        <time>2011-07-08T12:30:09Z</time>
      </trkpt>
      <trkpt lat="48.09416" lon="-4.29458">
        <ele>44.36</ele>
        <time>2011-07-08T12:30:23Z</time>
      </trkpt>
      <trkpt lat="48.09419" lon="-4.29455">
        <ele>43.88</ele>
        <time>2011-07-08T12:30:26Z</time>
      </trkpt>
      <trkpt lat="48.09431" lon="-4.29453">
        <ele>42.44</ele>
        <time>2011-07-08T12:30:40Z</time>
      </trkpt>
      <trkpt lat="48.09432" lon="-4.2946">
        <ele>43.4</ele>
        <time>2011-07-08T12:30:44Z</time>
      </trkpt>
      <trkpt lat="48.09437" lon="-4.2949">
        <ele>45.8</ele>
        <time>2011-07-08T12:30:59Z</time>
      </trkpt>
      <trkpt lat="48.09441" lon="-4.29519">
        <ele>45.32</ele>
        <time>2011-07-08T12:31:15Z</time>
      </trkpt>
      <trkpt lat="48.09441" lon="-4.29525">
        <ele>44.84</ele>
        <time>2011-07-08T12:31:27Z</time>
      </trkpt>
      <trkpt lat="48.09443" lon="-4.29539">
        <ele>44.84</ele>
        <time>2011-07-08T12:31:37Z</time>
      </trkpt>
      <trkpt lat="48.09446" lon="-4.29569">
        <ele>42.92</ele>
        <time>2011-07-08T12:31:53Z</time>
      </trkpt>
      <trkpt lat="48.0945" lon="-4.29591">
        <ele>40.99</ele>
        <time>2011-07-08T12:32:06Z</time>
      </trkpt>
      <trkpt lat="48.09453" lon="-4.29621">
        <ele>40.51</ele>
        <time>2011-07-08T12:32:22Z</time>
      </trkpt>
      <trkpt lat="48.09456" lon="-4.29649">
        <ele>39.55</ele>
        <time>2011-07-08T12:32:37Z</time>
      </trkpt>
      <trkpt lat="48.09459" lon="-4.29679">
        <ele>37.63</ele>
        <time>2011-07-08T12:32:53Z</time>
      </trkpt>
      <trkpt lat="48.09462" lon="-4.29705">
        <ele>34.26</ele>
        <time>2011-07-08T12:33:07Z</time>
      </trkpt>
      <trkpt lat="48.09465" lon="-4.29733">
        <ele>30.9</ele>
        <time>2011-07-08T12:33:23Z</time>
      </trkpt>
      <trkpt lat="48.09466" lon="-4.29745">
        <ele>28.5</ele>
        <time>2011-07-08T12:33:31Z</time>
      </trkpt>
      <trkpt lat="48.09473" lon="-4.29747">
        <ele>27.53</ele>
        <time>2011-07-08T12:33:44Z</time>
      </trkpt>
      <trkpt lat="48.09473" lon="-4.29747">
        <ele>27.53</ele>
        <time>2011-07-08T12:34:10Z</time>
      </trkpt>
      <trkpt lat="48.09473" lon="-4.29747">
        <ele>27.05</ele>
        <time>2011-07-08T12:34:27Z</time>
      </trkpt>
      <trkpt lat="48.09471" lon="-4.29749">
        <ele>27.53</ele>
        <time>2011-07-08T12:34:41Z</time>
      </trkpt>
      <trkpt lat="48.0947" lon="-4.29749">
        <ele>28.02</ele>
        <time>2011-07-08T12:34:44Z</time>
      </trkpt>
      <trkpt lat="48.09473" lon="-4.29748">
        <ele>28.02</ele>
        <time>2011-07-08T12:35:02Z</time>
      </trkpt>
      <trkpt lat="48.09473" lon="-4.29749">
        <ele>28.02</ele>
        <time>2011-07-08T12:35:38Z</time>
      </trkpt>
      <trkpt lat="48.09473" lon="-4.29749">
        <ele>28.5</ele>
        <time>2011-07-08T12:36:09Z</time>
      </trkpt>
      <trkpt lat="48.09472" lon="-4.29747">
        <ele>28.98</ele>
        <time>2011-07-08T12:36:21Z</time>
      </trkpt>
      <trkpt lat="48.09472" lon="-4.29747">
        <ele>28.98</ele>
        <time>2011-07-08T12:36:46Z</time>
      </trkpt>
      <trkpt lat="48.09473" lon="-4.29749">
        <ele>29.46</ele>
        <time>2011-07-08T12:37:07Z</time>
      </trkpt>
      <trkpt lat="48.0947" lon="-4.29748">
        <ele>29.94</ele>
        <time>2011-07-08T12:37:18Z</time>
      </trkpt>
      <trkpt lat="48.09471" lon="-4.29747">
        <ele>29.94</ele>
        <time>2011-07-08T12:37:19Z</time>
      </trkpt>
      <trkpt lat="48.09482" lon="-4.29741">
        <ele>28.5</ele>
        <time>2011-07-08T12:37:32Z</time>
      </trkpt>
      <trkpt lat="48.09491" lon="-4.29733">
        <ele>28.98</ele>
        <time>2011-07-08T12:37:46Z</time>
      </trkpt>
      <trkpt lat="48.09508" lon="-4.29721">
        <ele>29.46</ele>
        <time>2011-07-08T12:38:02Z</time>
      </trkpt>
      <trkpt lat="48.09521" lon="-4.29711">
        <ele>30.9</ele>
        <time>2011-07-08T12:38:15Z</time>
      </trkpt>
      <trkpt lat="48.09527" lon="-4.29706">
        <ele>30.9</ele>
        <time>2011-07-08T12:38:21Z</time>
      </trkpt>
      <trkpt lat="48.09533" lon="-4.29702">
        <ele>31.38</ele>
        <time>2011-07-08T12:38:26Z</time>
      </trkpt>
      <trkpt lat="48.09551" lon="-4.2969">
        <ele>31.38</ele>
        <time>2011-07-08T12:38:42Z</time>
      </trkpt>
      <trkpt lat="48.09563" lon="-4.2968">
        <ele>30.9</ele>
        <time>2011-07-08T12:38:56Z</time>
      </trkpt>
      <trkpt lat="48.0957" lon="-4.29676">
        <ele>30.42</ele>
        <time>2011-07-08T12:39:10Z</time>
      </trkpt>
      <trkpt lat="48.09572" lon="-4.2967">
        <ele>29.94</ele>
        <time>2011-07-08T12:39:14Z</time>
      </trkpt>
      <trkpt lat="48.09574" lon="-4.29661">
        <ele>29.94</ele>
        <time>2011-07-08T12:39:20Z</time>
      </trkpt>
      <trkpt lat="48.09594" lon="-4.29642">
        <ele>28.5</ele>
        <time>2011-07-08T12:39:39Z</time>
      </trkpt>
      <trkpt lat="48.09601" lon="-4.29638">
        <ele>28.5</ele>
        <time>2011-07-08T12:39:51Z</time>
      </trkpt>
      <trkpt lat="48.09621" lon="-4.29626">
        <ele>26.09</ele>
        <time>2011-07-08T12:40:07Z</time>
      </trkpt>
      <trkpt lat="48.09641" lon="-4.29614">
        <ele>22.25</ele>
        <time>2011-07-08T12:40:25Z</time>
      </trkpt>
      <trkpt lat="48.09656" lon="-4.296">
        <ele>20.32</ele>
        <time>2011-07-08T12:40:40Z</time>
      </trkpt>
      <trkpt lat="48.09667" lon="-4.29589">
        <ele>22.25</ele>
        <time>2011-07-08T12:40:54Z</time>
      </trkpt>
      <trkpt lat="48.0967" lon="-4.29588">
        <ele>23.21</ele>
        <time>2011-07-08T12:40:57Z</time>
      </trkpt>
      <trkpt lat="48.09675" lon="-4.29582">
        <ele>24.17</ele>
        <time>2011-07-08T12:41:02Z</time>
      </trkpt>
      <trkpt lat="48.09678" lon="-4.2958">
        <ele>24.17</ele>
        <time>2011-07-08T12:41:04Z</time>
      </trkpt>
      <trkpt lat="48.09681" lon="-4.2957">
        <ele>24.17</ele>
        <time>2011-07-08T12:41:10Z</time>
      </trkpt>
      <trkpt lat="48.09682" lon="-4.29565">
        <ele>24.65</ele>
        <time>2011-07-08T12:41:23Z</time>
      </trkpt>
      <trkpt lat="48.09683" lon="-4.29554">
        <ele>25.13</ele>
        <time>2011-07-08T12:41:30Z</time>
      </trkpt>
      <trkpt lat="48.09683" lon="-4.29546">
        <ele>24.65</ele>
        <time>2011-07-08T12:41:35Z</time>
      </trkpt>
      <trkpt lat="48.09684" lon="-4.29527">
        <ele>25.13</ele>
        <time>2011-07-08T12:41:48Z</time>
      </trkpt>
      <trkpt lat="48.09687" lon="-4.29509">
        <ele>27.53</ele>
        <time>2011-07-08T12:42:00Z</time>
      </trkpt>
      <trkpt lat="48.0969" lon="-4.29491">
        <ele>28.98</ele>
        <time>2011-07-08T12:42:11Z</time>
      </trkpt>
      <trkpt lat="48.09691" lon="-4.29488">
        <ele>29.46</ele>
        <time>2011-07-08T12:42:13Z</time>
      </trkpt>
      <trkpt lat="48.09691" lon="-4.29485">
        <ele>29.94</ele>
        <time>2011-07-08T12:42:15Z</time>
      </trkpt>
      <trkpt lat="48.09692" lon="-4.29482">
        <ele>30.42</ele>
        <time>2011-07-08T12:42:17Z</time>
      </trkpt>
      <trkpt lat="48.09693" lon="-4.29478">
        <ele>30.9</ele>
        <time>2011-07-08T12:42:20Z</time>
      </trkpt>
      <trkpt lat="48.09697" lon="-4.29469">
        <ele>31.38</ele>
        <time>2011-07-08T12:42:26Z</time>
      </trkpt>
      <trkpt lat="48.09706" lon="-4.29458">
        <ele>31.86</ele>
        <time>2011-07-08T12:42:36Z</time>
      </trkpt>
      <trkpt lat="48.09709" lon="-4.29453">
        <ele>32.34</ele>
        <time>2011-07-08T12:42:40Z</time>
      </trkpt>
      <trkpt lat="48.09715" lon="-4.29443">
        <ele>31.38</ele>
        <time>2011-07-08T12:42:48Z</time>
      </trkpt>
      <trkpt lat="48.09717" lon="-4.29436">
        <ele>32.34</ele>
        <time>2011-07-08T12:42:53Z</time>
      </trkpt>
      <trkpt lat="48.09716" lon="-4.29423">
        <ele>33.3</ele>
        <time>2011-07-08T12:43:03Z</time>
      </trkpt>
      <trkpt lat="48.09722" lon="-4.29421">
        <ele>34.26</ele>
        <time>2011-07-08T12:43:07Z</time>
      </trkpt>
      <trkpt lat="48.09738" lon="-4.29413">
        <ele>35.23</ele>
        <time>2011-07-08T12:43:22Z</time>
      </trkpt>
      <trkpt lat="48.09752" lon="-4.29407">
        <ele>37.15</ele>
        <time>2011-07-08T12:43:35Z</time>
      </trkpt>
      <trkpt lat="48.09764" lon="-4.294">
        <ele>38.59</ele>
        <time>2011-07-08T12:43:47Z</time>
      </trkpt>
      <trkpt lat="48.09782" lon="-4.29393">
        <ele>40.03</ele>
        <time>2011-07-08T12:44:02Z</time>
      </trkpt>
      <trkpt lat="48.09799" lon="-4.29385">
        <ele>40.03</ele>
        <time>2011-07-08T12:44:17Z</time>
      </trkpt>
      <trkpt lat="48.09807" lon="-4.29383">
        <ele>40.51</ele>
        <time>2011-07-08T12:44:23Z</time>
      </trkpt>
      <trkpt lat="48.09811" lon="-4.29379">
        <ele>40.99</ele>
        <time>2011-07-08T12:44:27Z</time>
      </trkpt>
      <trkpt lat="48.09818" lon="-4.29377">
        <ele>41.47</ele>
        <time>2011-07-08T12:44:34Z</time>
      </trkpt>
      <trkpt lat="48.09825" lon="-4.29371">
        <ele>41.47</ele>
        <time>2011-07-08T12:44:41Z</time>
      </trkpt>
      <trkpt lat="48.09842" lon="-4.29362">
        <ele>40.51</ele>
        <time>2011-07-08T12:44:56Z</time>
      </trkpt>
      <trkpt lat="48.0986" lon="-4.29369">
        <ele>39.07</ele>
        <time>2011-07-08T12:45:12Z</time>
      </trkpt>
      <trkpt lat="48.09878" lon="-4.2938">
        <ele>36.19</ele>
        <time>2011-07-08T12:45:29Z</time>
      </trkpt>
      <trkpt lat="48.09886" lon="-4.29381">
        <ele>35.23</ele>
        <time>2011-07-08T12:45:36Z</time>
      </trkpt>
      <trkpt lat="48.09906" lon="-4.29369">
        <ele>34.26</ele>
        <time>2011-07-08T12:45:54Z</time>
      </trkpt>
      <trkpt lat="48.09924" lon="-4.29358">
        <ele>34.26</ele>
        <time>2011-07-08T12:46:09Z</time>
      </trkpt>
      <trkpt lat="48.09941" lon="-4.29346">
        <ele>33.3</ele>
        <time>2011-07-08T12:46:25Z</time>
      </trkpt>
      <trkpt lat="48.0995" lon="-4.2934">
        <ele>32.82</ele>
        <time>2011-07-08T12:46:33Z</time>
      </trkpt>
      <trkpt lat="48.09954" lon="-4.2933">
        <ele>33.3</ele>
        <time>2011-07-08T12:46:39Z</time>
      </trkpt>
      <trkpt lat="48.09954" lon="-4.29313">
        <ele>34.26</ele>
        <time>2011-07-08T12:46:52Z</time>
      </trkpt>
      <trkpt lat="48.09951" lon="-4.29295">
        <ele>36.67</ele>
        <time>2011-07-08T12:47:04Z</time>
      </trkpt>
      <trkpt lat="48.0995" lon="-4.29292">
        <ele>37.15</ele>
        <time>2011-07-08T12:47:07Z</time>
      </trkpt>
      <trkpt lat="48.09949" lon="-4.29288">
        <ele>37.15</ele>
        <time>2011-07-08T12:47:10Z</time>
      </trkpt>
      <trkpt lat="48.09948" lon="-4.2928">
        <ele>38.11</ele>
        <time>2011-07-08T12:47:15Z</time>
      </trkpt>
      <trkpt lat="48.09947" lon="-4.2927">
        <ele>39.07</ele>
        <time>2011-07-08T12:47:22Z</time>
      </trkpt>
      <trkpt lat="48.09944" lon="-4.29245">
        <ele>41.95</ele>
        <time>2011-07-08T12:47:37Z</time>
      </trkpt>
      <trkpt lat="48.09943" lon="-4.29237">
        <ele>42.92</ele>
        <time>2011-07-08T12:47:42Z</time>
      </trkpt>
      <trkpt lat="48.09943" lon="-4.29234">
        <ele>43.4</ele>
        <time>2011-07-08T12:47:44Z</time>
      </trkpt>
      <trkpt lat="48.0994" lon="-4.29212">
        <ele>45.8</ele>
        <time>2011-07-08T12:47:58Z</time>
      </trkpt>
      <trkpt lat="48.09939" lon="-4.29188">
        <ele>46.76</ele>
        <time>2011-07-08T12:48:12Z</time>
      </trkpt>
      <trkpt lat="48.0994" lon="-4.29181">
        <ele>46.76</ele>
        <time>2011-07-08T12:48:16Z</time>
      </trkpt>
      <trkpt lat="48.09939" lon="-4.29176">
        <ele>47.24</ele>
        <time>2011-07-08T12:48:19Z</time>
      </trkpt>
      <trkpt lat="48.0994" lon="-4.29169">
        <ele>47.24</ele>
        <time>2011-07-08T12:48:23Z</time>
      </trkpt>
      <trkpt lat="48.09949" lon="-4.29162">
        <ele>47.72</ele>
        <time>2011-07-08T12:48:34Z</time>
      </trkpt>
      <trkpt lat="48.09953" lon="-4.29155">
        <ele>46.76</ele>
        <time>2011-07-08T12:48:39Z</time>
      </trkpt>
      <trkpt lat="48.09964" lon="-4.29139">
        <ele>43.88</ele>
        <time>2011-07-08T12:48:53Z</time>
      </trkpt>
      <trkpt lat="48.09978" lon="-4.29122">
        <ele>40.51</ele>
        <time>2011-07-08T12:49:10Z</time>
      </trkpt>
      <trkpt lat="48.0999" lon="-4.29104">
        <ele>38.59</ele>
        <time>2011-07-08T12:49:25Z</time>
      </trkpt>
      <trkpt lat="48.10004" lon="-4.29083">
        <ele>35.23</ele>
        <time>2011-07-08T12:49:42Z</time>
      </trkpt>
      <trkpt lat="48.1001" lon="-4.29076">
        <ele>34.26</ele>
        <time>2011-07-08T12:49:49Z</time>
      </trkpt>
      <trkpt lat="48.10025" lon="-4.29066">
        <ele>32.34</ele>
        <time>2011-07-08T12:50:05Z</time>
      </trkpt>
      <trkpt lat="48.10041" lon="-4.29051">
        <ele>29.46</ele>
        <time>2011-07-08T12:50:21Z</time>
      </trkpt>
      <trkpt lat="48.10048" lon="-4.29025">
        <ele>28.5</ele>
        <time>2011-07-08T12:50:38Z</time>
      </trkpt>
      <trkpt lat="48.10041" lon="-4.28998">
        <ele>28.5</ele>
        <time>2011-07-08T12:50:55Z</time>
      </trkpt>
      <trkpt lat="48.10036" lon="-4.2899">
        <ele>28.98</ele>
        <time>2011-07-08T12:51:01Z</time>
      </trkpt>
      <trkpt lat="48.10027" lon="-4.28968">
        <ele>28.5</ele>
        <time>2011-07-08T12:51:17Z</time>
      </trkpt>
      <trkpt lat="48.10034" lon="-4.28947">
        <ele>26.09</ele>
        <time>2011-07-08T12:51:33Z</time>
      </trkpt>
      <trkpt lat="48.10041" lon="-4.28926">
        <ele>26.09</ele>
        <time>2011-07-08T12:51:47Z</time>
      </trkpt>
      <trkpt lat="48.10046" lon="-4.28914">
        <ele>26.09</ele>
        <time>2011-07-08T12:51:59Z</time>
      </trkpt>
      <trkpt lat="48.10053" lon="-4.28909">
        <ele>27.53</ele>
        <time>2011-07-08T12:52:07Z</time>
      </trkpt>
      <trkpt lat="48.10066" lon="-4.28901">
        <ele>28.98</ele>
        <time>2011-07-08T12:52:20Z</time>
      </trkpt>
      <trkpt lat="48.10087" lon="-4.28893">
        <ele>30.42</ele>
        <time>2011-07-08T12:52:37Z</time>
      </trkpt>
      <trkpt lat="48.10114" lon="-4.28891">
        <ele>29.46</ele>
        <time>2011-07-08T12:52:59Z</time>
      </trkpt>
      <trkpt lat="48.10134" lon="-4.28888">
        <ele>27.53</ele>
        <time>2011-07-08T12:53:16Z</time>
      </trkpt>
      <trkpt lat="48.10152" lon="-4.28873">
        <ele>26.57</ele>
        <time>2011-07-08T12:53:33Z</time>
      </trkpt>
      <trkpt lat="48.10163" lon="-4.28856">
        <ele>27.53</ele>
        <time>2011-07-08T12:53:47Z</time>
      </trkpt>
      <trkpt lat="48.10175" lon="-4.28838">
        <ele>28.02</ele>
        <time>2011-07-08T12:54:02Z</time>
      </trkpt>
      <trkpt lat="48.1018" lon="-4.28831">
        <ele>27.53</ele>
        <time>2011-07-08T12:54:08Z</time>
      </trkpt>
      <trkpt lat="48.10192" lon="-4.28816">
        <ele>28.5</ele>
        <time>2011-07-08T12:54:21Z</time>
      </trkpt>
      <trkpt lat="48.10199" lon="-4.28807">
        <ele>28.5</ele>
        <time>2011-07-08T12:54:29Z</time>
      </trkpt>
      <trkpt lat="48.1021" lon="-4.28792">
        <ele>28.02</ele>
        <time>2011-07-08T12:54:41Z</time>
      </trkpt>
      <trkpt lat="48.10224" lon="-4.28771">
        <ele>28.98</ele>
        <time>2011-07-08T12:54:57Z</time>
      </trkpt>
      <trkpt lat="48.10233" lon="-4.28756">
        <ele>29.46</ele>
        <time>2011-07-08T12:55:08Z</time>
      </trkpt>
      <trkpt lat="48.10235" lon="-4.2875">
        <ele>29.94</ele>
        <time>2011-07-08T12:55:12Z</time>
      </trkpt>
      <trkpt lat="48.10247" lon="-4.28726">
        <ele>30.42</ele>
        <time>2011-07-08T12:55:28Z</time>
      </trkpt>
      <trkpt lat="48.10257" lon="-4.28704">
        <ele>29.94</ele>
        <time>2011-07-08T12:55:43Z</time>
      </trkpt>
      <trkpt lat="48.10267" lon="-4.28689">
        <ele>27.05</ele>
        <time>2011-07-08T12:55:58Z</time>
      </trkpt>
      <trkpt lat="48.10272" lon="-4.28684">
        <ele>25.13</ele>
        <time>2011-07-08T12:56:13Z</time>
      </trkpt>
      <trkpt lat="48.10275" lon="-4.2868">
        <ele>24.17</ele>
        <time>2011-07-08T12:56:27Z</time>
      </trkpt>
      <trkpt lat="48.10283" lon="-4.28676">
        <ele>20.81</ele>
        <time>2011-07-08T12:56:42Z</time>
      </trkpt>
      <trkpt lat="48.10293" lon="-4.28671">
        <ele>17.92</ele>
        <time>2011-07-08T12:56:55Z</time>
      </trkpt>
      <trkpt lat="48.10302" lon="-4.28657">
        <ele>16.96</ele>
        <time>2011-07-08T12:57:06Z</time>
      </trkpt>
      <trkpt lat="48.10312" lon="-4.28631">
        <ele>16.48</ele>
        <time>2011-07-08T12:57:23Z</time>
      </trkpt>
      <trkpt lat="48.10318" lon="-4.28625">
        <ele>15.52</ele>
        <time>2011-07-08T12:57:37Z</time>
      </trkpt>
      <trkpt lat="48.10318" lon="-4.28625">
        <ele>15.52</ele>
        <time>2011-07-08T12:57:39Z</time>
      </trkpt>
      <trkpt lat="48.10337" lon="-4.28635">
        <ele>12.63</ele>
        <time>2011-07-08T12:57:55Z</time>
      </trkpt>
      <trkpt lat="48.10358" lon="-4.28623">
        <ele>10.71</ele>
        <time>2011-07-08T12:58:13Z</time>
      </trkpt>
      <trkpt lat="48.10373" lon="-4.28611">
        <ele>9.75</ele>
        <time>2011-07-08T12:58:26Z</time>
      </trkpt>
      <trkpt lat="48.10381" lon="-4.28598">
        <ele>7.83</ele>
        <time>2011-07-08T12:58:37Z</time>
      </trkpt>
      <trkpt lat="48.10382" lon="-4.28596">
        <ele>7.83</ele>
        <time>2011-07-08T12:58:39Z</time>
      </trkpt>
      <trkpt lat="48.10388" lon="-4.28595">
        <ele>7.83</ele>
        <time>2011-07-08T12:58:44Z</time>
      </trkpt>
      <trkpt lat="48.1041" lon="-4.28588">
        <ele>6.87</ele>
        <time>2011-07-08T12:59:03Z</time>
      </trkpt>
      <trkpt lat="48.1043" lon="-4.28582">
        <ele>7.35</ele>
        <time>2011-07-08T12:59:19Z</time>
      </trkpt>
      <trkpt lat="48.1045" lon="-4.28578">
        <ele>6.87</ele>
        <time>2011-07-08T12:59:35Z</time>
      </trkpt>
      <trkpt lat="48.10458" lon="-4.28573">
        <ele>6.39</ele>
        <time>2011-07-08T12:59:43Z</time>
      </trkpt>
      <trkpt lat="48.1046" lon="-4.28574">
        <ele>6.39</ele>
        <time>2011-07-08T12:59:45Z</time>
      </trkpt>
      <trkpt lat="48.10461" lon="-4.28576">
        <ele>5.91</ele>
        <time>2011-07-08T12:59:47Z</time>
      </trkpt>
      <trkpt lat="48.10468" lon="-4.28582">
        <ele>5.91</ele>
        <time>2011-07-08T12:59:54Z</time>
      </trkpt>
      <trkpt lat="48.10485" lon="-4.2859">
        <ele>5.42</ele>
        <time>2011-07-08T13:00:09Z</time>
      </trkpt>
      <trkpt lat="48.10504" lon="-4.286">
        <ele>4.94</ele>
        <time>2011-07-08T13:00:26Z</time>
      </trkpt>
      <trkpt lat="48.10523" lon="-4.28598">
        <ele>3.98</ele>
        <time>2011-07-08T13:00:41Z</time>
      </trkpt>
      <trkpt lat="48.10546" lon="-4.28593">
        <ele>3.5</ele>
        <time>2011-07-08T13:01:00Z</time>
      </trkpt>
      <trkpt lat="48.10548" lon="-4.28592">
        <ele>3.5</ele>
        <time>2011-07-08T13:01:02Z</time>
      </trkpt>
      <trkpt lat="48.10569" lon="-4.28589">
        <ele>3.98</ele>
        <time>2011-07-08T13:01:19Z</time>
      </trkpt>
      <trkpt lat="48.1059" lon="-4.28582">
        <ele>3.98</ele>
        <time>2011-07-08T13:01:36Z</time>
      </trkpt>
      <trkpt lat="48.10611" lon="-4.28575">
        <ele>2.54</ele>
        <time>2011-07-08T13:01:53Z</time>
      </trkpt>
      <trkpt lat="48.10628" lon="-4.2857">
        <ele>2.06</ele>
        <time>2011-07-08T13:02:07Z</time>
      </trkpt>
      <trkpt lat="48.10648" lon="-4.28564">
        <ele>1.58</ele>
        <time>2011-07-08T13:02:23Z</time>
      </trkpt>
      <trkpt lat="48.10667" lon="-4.28561">
        <ele>3.02</ele>
        <time>2011-07-08T13:02:38Z</time>
      </trkpt>
      <trkpt lat="48.10668" lon="-4.28561">
        <ele>3.02</ele>
        <time>2011-07-08T13:02:39Z</time>
      </trkpt>
      <trkpt lat="48.10677" lon="-4.28558">
        <ele>2.54</ele>
        <time>2011-07-08T13:02:46Z</time>
      </trkpt>
      <trkpt lat="48.10698" lon="-4.28553">
        <ele>2.54</ele>
        <time>2011-07-08T13:03:02Z</time>
      </trkpt>
      <trkpt lat="48.10715" lon="-4.28547">
        <ele>2.54</ele>
        <time>2011-07-08T13:03:16Z</time>
      </trkpt>
      <trkpt lat="48.10735" lon="-4.28541">
        <ele>2.06</ele>
        <time>2011-07-08T13:03:32Z</time>
      </trkpt>
      <trkpt lat="48.10752" lon="-4.28537">
        <ele>2.54</ele>
        <time>2011-07-08T13:03:45Z</time>
      </trkpt>
      <trkpt lat="48.10757" lon="-4.28535">
        <ele>2.54</ele>
        <time>2011-07-08T13:03:49Z</time>
      </trkpt>
      <trkpt lat="48.10777" lon="-4.28529">
        <ele>2.06</ele>
        <time>2011-07-08T13:04:05Z</time>
      </trkpt>
      <trkpt lat="48.10797" lon="-4.28525">
        <ele>2.54</ele>
        <time>2011-07-08T13:04:21Z</time>
      </trkpt>
      <trkpt lat="48.10815" lon="-4.28519">
        <ele>2.54</ele>
        <time>2011-07-08T13:04:36Z</time>
      </trkpt>
      <trkpt lat="48.10836" lon="-4.28513">
        <ele>3.02</ele>
        <time>2011-07-08T13:04:52Z</time>
      </trkpt>
      <trkpt lat="48.10854" lon="-4.28506">
        <ele>3.02</ele>
        <time>2011-07-08T13:05:07Z</time>
      </trkpt>
      <trkpt lat="48.10873" lon="-4.285">
        <ele>3.02</ele>
        <time>2011-07-08T13:05:22Z</time>
      </trkpt>
      <trkpt lat="48.10884" lon="-4.28497">
        <ele>3.5</ele>
        <time>2011-07-08T13:05:36Z</time>
      </trkpt>
      <trkpt lat="48.10897" lon="-4.28494">
        <ele>3.5</ele>
        <time>2011-07-08T13:05:54Z</time>
      </trkpt>
      <trkpt lat="48.10899" lon="-4.28494">
        <ele>3.5</ele>
        <time>2011-07-08T13:05:56Z</time>
      </trkpt>
      <trkpt lat="48.10906" lon="-4.28489">
        <ele>3.02</ele>
        <time>2011-07-08T13:06:02Z</time>
      </trkpt>
      <trkpt lat="48.10917" lon="-4.28471">
        <ele>2.06</ele>
        <time>2011-07-08T13:06:15Z</time>
      </trkpt>
      <trkpt lat="48.10926" lon="-4.28447">
        <ele>1.58</ele>
        <time>2011-07-08T13:06:29Z</time>
      </trkpt>
      <trkpt lat="48.1093" lon="-4.2844">
        <ele>2.54</ele>
        <time>2011-07-08T13:06:34Z</time>
      </trkpt>
      <trkpt lat="48.10947" lon="-4.2842">
        <ele>3.5</ele>
        <time>2011-07-08T13:06:51Z</time>
      </trkpt>
      <trkpt lat="48.10967" lon="-4.28408">
        <ele>3.98</ele>
        <time>2011-07-08T13:07:07Z</time>
      </trkpt>
      <trkpt lat="48.10987" lon="-4.28398">
        <ele>3.5</ele>
        <time>2011-07-08T13:07:23Z</time>
      </trkpt>
      <trkpt lat="48.11008" lon="-4.28388">
        <ele>3.98</ele>
        <time>2011-07-08T13:07:40Z</time>
      </trkpt>
      <trkpt lat="48.11026" lon="-4.28379">
        <ele>3.02</ele>
        <time>2011-07-08T13:07:55Z</time>
      </trkpt>
      <trkpt lat="48.11042" lon="-4.28372">
        <ele>3.02</ele>
        <time>2011-07-08T13:08:09Z</time>
      </trkpt>
      <trkpt lat="48.11043" lon="-4.28371">
        <ele>3.02</ele>
        <time>2011-07-08T13:08:33Z</time>
      </trkpt>
      <trkpt lat="48.11065" lon="-4.28364">
        <ele>3.02</ele>
        <time>2011-07-08T13:08:49Z</time>
      </trkpt>
      <trkpt lat="48.11086" lon="-4.28355">
        <ele>3.5</ele>
        <time>2011-07-08T13:09:06Z</time>
      </trkpt>
      <trkpt lat="48.11108" lon="-4.28344">
        <ele>3.98</ele>
        <time>2011-07-08T13:09:23Z</time>
      </trkpt>
      <trkpt lat="48.11126" lon="-4.28336">
        <ele>4.46</ele>
        <time>2011-07-08T13:09:38Z</time>
      </trkpt>
      <trkpt lat="48.11146" lon="-4.28329">
        <ele>3.98</ele>
        <time>2011-07-08T13:09:54Z</time>
      </trkpt>
      <trkpt lat="48.11168" lon="-4.28319">
        <ele>4.94</ele>
        <time>2011-07-08T13:10:11Z</time>
      </trkpt>
      <trkpt lat="48.1119" lon="-4.2831">
        <ele>4.94</ele>
        <time>2011-07-08T13:10:29Z</time>
      </trkpt>
      <trkpt lat="48.1121" lon="-4.28301">
        <ele>4.94</ele>
        <time>2011-07-08T13:10:45Z</time>
      </trkpt>
      <trkpt lat="48.11231" lon="-4.28292">
        <ele>4.46</ele>
        <time>2011-07-08T13:11:03Z</time>
      </trkpt>
      <trkpt lat="48.1125" lon="-4.28285">
        <ele>4.46</ele>
        <time>2011-07-08T13:11:18Z</time>
      </trkpt>
      <trkpt lat="48.11269" lon="-4.28277">
        <ele>4.46</ele>
        <time>2011-07-08T13:11:33Z</time>
      </trkpt>
      <trkpt lat="48.11289" lon="-4.28271">
        <ele>4.94</ele>
        <time>2011-07-08T13:11:49Z</time>
      </trkpt>
      <trkpt lat="48.11307" lon="-4.28265">
        <ele>5.91</ele>
        <time>2011-07-08T13:12:03Z</time>
      </trkpt>
      <trkpt lat="48.11326" lon="-4.28258">
        <ele>5.91</ele>
        <time>2011-07-08T13:12:18Z</time>
      </trkpt>
      <trkpt lat="48.11343" lon="-4.2825">
        <ele>5.91</ele>
        <time>2011-07-08T13:12:33Z</time>
      </trkpt>
      <trkpt lat="48.11362" lon="-4.28243">
        <ele>5.91</ele>
        <time>2011-07-08T13:12:48Z</time>
      </trkpt>
      <trkpt lat="48.11382" lon="-4.28236">
        <ele>5.91</ele>
        <time>2011-07-08T13:13:04Z</time>
      </trkpt>
      <trkpt lat="48.11403" lon="-4.28229">
        <ele>5.91</ele>
        <time>2011-07-08T13:13:21Z</time>
      </trkpt>
      <trkpt lat="48.11423" lon="-4.28222">
        <ele>3.98</ele>
        <time>2011-07-08T13:13:37Z</time>
      </trkpt>
      <trkpt lat="48.11442" lon="-4.28213">
        <ele>4.46</ele>
        <time>2011-07-08T13:13:53Z</time>
      </trkpt>
      <trkpt lat="48.11443" lon="-4.28212">
        <ele>4.46</ele>
        <time>2011-07-08T13:13:54Z</time>
      </trkpt>
      <trkpt lat="48.11446" lon="-4.2821">
        <ele>4.46</ele>
        <time>2011-07-08T13:13:57Z</time>
      </trkpt>
      <trkpt lat="48.11454" lon="-4.28205">
        <ele>5.42</ele>
        <time>2011-07-08T13:14:04Z</time>
      </trkpt>
      <trkpt lat="48.11473" lon="-4.28192">
        <ele>4.46</ele>
        <time>2011-07-08T13:14:21Z</time>
      </trkpt>
      <trkpt lat="48.11493" lon="-4.28189">
        <ele>3.98</ele>
        <time>2011-07-08T13:14:38Z</time>
      </trkpt>
      <trkpt lat="48.11515" lon="-4.28185">
        <ele>3.02</ele>
        <time>2011-07-08T13:14:56Z</time>
      </trkpt>
      <trkpt lat="48.11538" lon="-4.28183">
        <ele>4.94</ele>
        <time>2011-07-08T13:15:13Z</time>
      </trkpt>
      <trkpt lat="48.11557" lon="-4.2818">
        <ele>4.94</ele>
        <time>2011-07-08T13:15:29Z</time>
      </trkpt>
      <trkpt lat="48.11576" lon="-4.28176">
        <ele>4.46</ele>
        <time>2011-07-08T13:15:44Z</time>
      </trkpt>
      <trkpt lat="48.11596" lon="-4.28171">
        <ele>3.5</ele>
        <time>2011-07-08T13:16:00Z</time>
      </trkpt>
      <trkpt lat="48.11616" lon="-4.28165">
        <ele>2.54</ele>
        <time>2011-07-08T13:16:16Z</time>
      </trkpt>
      <trkpt lat="48.11638" lon="-4.28158">
        <ele>2.54</ele>
        <time>2011-07-08T13:16:34Z</time>
      </trkpt>
      <trkpt lat="48.11644" lon="-4.28155">
        <ele>3.02</ele>
        <time>2011-07-08T13:16:39Z</time>
      </trkpt>
      <trkpt lat="48.1165" lon="-4.28155">
        <ele>3.02</ele>
        <time>2011-07-08T13:16:44Z</time>
      </trkpt>
      <trkpt lat="48.11671" lon="-4.28149">
        <ele>3.02</ele>
        <time>2011-07-08T13:17:01Z</time>
      </trkpt>
      <trkpt lat="48.11692" lon="-4.28143">
        <ele>3.5</ele>
        <time>2011-07-08T13:17:18Z</time>
      </trkpt>
      <trkpt lat="48.1171" lon="-4.28139">
        <ele>3.5</ele>
        <time>2011-07-08T13:17:32Z</time>
      </trkpt>
      <trkpt lat="48.11733" lon="-4.28133">
        <ele>3.98</ele>
        <time>2011-07-08T13:17:51Z</time>
      </trkpt>
      <trkpt lat="48.11746" lon="-4.2813">
        <ele>4.46</ele>
        <time>2011-07-08T13:18:01Z</time>
      </trkpt>
      <trkpt lat="48.11769" lon="-4.28123">
        <ele>4.94</ele>
        <time>2011-07-08T13:18:20Z</time>
      </trkpt>
      <trkpt lat="48.11792" lon="-4.2812">
        <ele>3.5</ele>
        <time>2011-07-08T13:18:37Z</time>
      </trkpt>
      <trkpt lat="48.118" lon="-4.28117">
        <ele>3.98</ele>
        <time>2011-07-08T13:18:43Z</time>
      </trkpt>
      <trkpt lat="48.11816" lon="-4.28105">
        <ele>3.5</ele>
        <time>2011-07-08T13:18:58Z</time>
      </trkpt>
      <trkpt lat="48.1183" lon="-4.28085">
        <ele>3.5</ele>
        <time>2011-07-08T13:19:13Z</time>
      </trkpt>
      <trkpt lat="48.11832" lon="-4.28074">
        <ele>4.46</ele>
        <time>2011-07-08T13:19:20Z</time>
      </trkpt>
      <trkpt lat="48.11834" lon="-4.2807">
        <ele>4.46</ele>
        <time>2011-07-08T13:19:22Z</time>
      </trkpt>
      <trkpt lat="48.11834" lon="-4.2806">
        <ele>3.02</ele>
        <time>2011-07-08T13:19:34Z</time>
      </trkpt>
      <trkpt lat="48.11834" lon="-4.28055">
        <ele>3.5</ele>
        <time>2011-07-08T13:19:44Z</time>
      </trkpt>
      <trkpt lat="48.11836" lon="-4.28045">
        <ele>6.87</ele>
        <time>2011-07-08T13:19:59Z</time>
      </trkpt>
      <trkpt lat="48.11836" lon="-4.28045">
        <ele>7.35</ele>
        <time>2011-07-08T13:20:00Z</time>
      </trkpt>
      <trkpt lat="48.1184" lon="-4.28041">
        <ele>9.75</ele>
        <time>2011-07-08T13:20:12Z</time>
      </trkpt>
      <trkpt lat="48.11842" lon="-4.28041">
        <ele>10.71</ele>
        <time>2011-07-08T13:20:18Z</time>
      </trkpt>
      <trkpt lat="48.11845" lon="-4.28039">
        <ele>10.71</ele>
        <time>2011-07-08T13:20:21Z</time>
      </trkpt>
      <trkpt lat="48.11848" lon="-4.28038">
        <ele>11.19</ele>
        <time>2011-07-08T13:20:25Z</time>
      </trkpt>
      <trkpt lat="48.11855" lon="-4.28036">
        <ele>11.67</ele>
        <time>2011-07-08T13:20:30Z</time>
      </trkpt>
      <trkpt lat="48.1187" lon="-4.2803">
        <ele>14.56</ele>
        <time>2011-07-08T13:20:44Z</time>
      </trkpt>
      <trkpt lat="48.11879" lon="-4.28027">
        <ele>15.52</ele>
        <time>2011-07-08T13:20:52Z</time>
      </trkpt>
      <trkpt lat="48.11894" lon="-4.2803">
        <ele>16</ele>
        <time>2011-07-08T13:21:06Z</time>
      </trkpt>
      <trkpt lat="48.1191" lon="-4.28034">
        <ele>16.96</ele>
        <time>2011-07-08T13:21:20Z</time>
      </trkpt>
      <trkpt lat="48.11921" lon="-4.28051">
        <ele>16.96</ele>
        <time>2011-07-08T13:21:34Z</time>
      </trkpt>
      <trkpt lat="48.11929" lon="-4.28072">
        <ele>16.96</ele>
        <time>2011-07-08T13:21:49Z</time>
      </trkpt>
      <trkpt lat="48.1193" lon="-4.28073">
        <ele>16.96</ele>
        <time>2011-07-08T13:21:52Z</time>
      </trkpt>
      <trkpt lat="48.11935" lon="-4.2808">
        <ele>17.92</ele>
        <time>2011-07-08T13:22:07Z</time>
      </trkpt>
      <trkpt lat="48.1194" lon="-4.2808">
        <ele>18.4</ele>
        <time>2011-07-08T13:22:12Z</time>
      </trkpt>
      <trkpt lat="48.11954" lon="-4.28074">
        <ele>19.84</ele>
        <time>2011-07-08T13:22:28Z</time>
      </trkpt>
      <trkpt lat="48.11961" lon="-4.28076">
        <ele>22.73</ele>
        <time>2011-07-08T13:22:36Z</time>
      </trkpt>
      <trkpt lat="48.11972" lon="-4.28101">
        <ele>22.73</ele>
        <time>2011-07-08T13:22:51Z</time>
      </trkpt>
      <trkpt lat="48.11974" lon="-4.2812">
        <ele>23.69</ele>
        <time>2011-07-08T13:23:01Z</time>
      </trkpt>
      <trkpt lat="48.11972" lon="-4.28144">
        <ele>22.73</ele>
        <time>2011-07-08T13:23:17Z</time>
      </trkpt>
      <trkpt lat="48.11986" lon="-4.28166">
        <ele>21.77</ele>
        <time>2011-07-08T13:23:32Z</time>
      </trkpt>
      <trkpt lat="48.11994" lon="-4.28191">
        <ele>23.21</ele>
        <time>2011-07-08T13:23:48Z</time>
      </trkpt>
      <trkpt lat="48.11995" lon="-4.28192">
        <ele>23.21</ele>
        <time>2011-07-08T13:23:49Z</time>
      </trkpt>
      <trkpt lat="48.11996" lon="-4.282">
        <ele>23.21</ele>
        <time>2011-07-08T13:23:53Z</time>
      </trkpt>
      <trkpt lat="48.12005" lon="-4.28224">
        <ele>24.17</ele>
        <time>2011-07-08T13:24:08Z</time>
      </trkpt>
      <trkpt lat="48.12011" lon="-4.28248">
        <ele>20.81</ele>
        <time>2011-07-08T13:24:22Z</time>
      </trkpt>
      <trkpt lat="48.12017" lon="-4.28251">
        <ele>20.81</ele>
        <time>2011-07-08T13:24:27Z</time>
      </trkpt>
      <trkpt lat="48.12024" lon="-4.28252">
        <ele>20.81</ele>
        <time>2011-07-08T13:24:36Z</time>
      </trkpt>
      <trkpt lat="48.12027" lon="-4.28252">
        <ele>20.81</ele>
        <time>2011-07-08T13:24:39Z</time>
      </trkpt>
      <trkpt lat="48.1203" lon="-4.28251">
        <ele>21.29</ele>
        <time>2011-07-08T13:24:42Z</time>
      </trkpt>
      <trkpt lat="48.1204" lon="-4.28254">
        <ele>23.69</ele>
        <time>2011-07-08T13:24:55Z</time>
      </trkpt>
      <trkpt lat="48.12044" lon="-4.28254">
        <ele>24.17</ele>
        <time>2011-07-08T13:25:00Z</time>
      </trkpt>
      <trkpt lat="48.12048" lon="-4.28255">
        <ele>25.13</ele>
        <time>2011-07-08T13:25:04Z</time>
      </trkpt>
      <trkpt lat="48.12062" lon="-4.2827">
        <ele>27.53</ele>
        <time>2011-07-08T13:25:19Z</time>
      </trkpt>
      <trkpt lat="48.12075" lon="-4.28281">
        <ele>28.98</ele>
        <time>2011-07-08T13:25:34Z</time>
      </trkpt>
      <trkpt lat="48.12091" lon="-4.28283">
        <ele>28.02</ele>
        <time>2011-07-08T13:25:49Z</time>
      </trkpt>
      <trkpt lat="48.12112" lon="-4.28282">
        <ele>28.5</ele>
        <time>2011-07-08T13:26:04Z</time>
      </trkpt>
      <trkpt lat="48.12135" lon="-4.28284">
        <ele>28.5</ele>
        <time>2011-07-08T13:26:22Z</time>
      </trkpt>
      <trkpt lat="48.12157" lon="-4.28287">
        <ele>28.5</ele>
        <time>2011-07-08T13:26:39Z</time>
      </trkpt>
      <trkpt lat="48.12181" lon="-4.28288">
        <ele>28.98</ele>
        <time>2011-07-08T13:26:56Z</time>
      </trkpt>
      <trkpt lat="48.122" lon="-4.28286">
        <ele>30.42</ele>
        <time>2011-07-08T13:27:11Z</time>
      </trkpt>
      <trkpt lat="48.12207" lon="-4.28283">
        <ele>30.42</ele>
        <time>2011-07-08T13:27:16Z</time>
      </trkpt>
      <trkpt lat="48.12219" lon="-4.28277">
        <ele>29.94</ele>
        <time>2011-07-08T13:27:27Z</time>
      </trkpt>
      <trkpt lat="48.12236" lon="-4.28268">
        <ele>31.86</ele>
        <time>2011-07-08T13:27:43Z</time>
      </trkpt>
      <trkpt lat="48.12247" lon="-4.28262">
        <ele>32.82</ele>
        <time>2011-07-08T13:27:55Z</time>
      </trkpt>
      <trkpt lat="48.12254" lon="-4.28259">
        <ele>33.78</ele>
        <time>2011-07-08T13:28:01Z</time>
      </trkpt>
      <trkpt lat="48.12257" lon="-4.28257">
        <ele>33.78</ele>
        <time>2011-07-08T13:28:04Z</time>
      </trkpt>
      <trkpt lat="48.12263" lon="-4.28255">
        <ele>35.23</ele>
        <time>2011-07-08T13:28:19Z</time>
      </trkpt>
      <trkpt lat="48.12264" lon="-4.28255">
        <ele>35.71</ele>
        <time>2011-07-08T13:28:32Z</time>
      </trkpt>
      <trkpt lat="48.12267" lon="-4.28255">
        <ele>36.19</ele>
        <time>2011-07-08T13:28:48Z</time>
      </trkpt>
      <trkpt lat="48.12268" lon="-4.28255">
        <ele>36.67</ele>
        <time>2011-07-08T13:28:51Z</time>
      </trkpt>
      <trkpt lat="48.12272" lon="-4.28258">
        <ele>37.63</ele>
        <time>2011-07-08T13:28:55Z</time>
      </trkpt>
      <trkpt lat="48.12278" lon="-4.28259">
        <ele>39.07</ele>
        <time>2011-07-08T13:29:03Z</time>
      </trkpt>
      <trkpt lat="48.12295" lon="-4.28277">
        <ele>38.11</ele>
        <time>2011-07-08T13:29:20Z</time>
      </trkpt>
      <trkpt lat="48.12307" lon="-4.28294">
        <ele>36.19</ele>
        <time>2011-07-08T13:29:35Z</time>
      </trkpt>
      <trkpt lat="48.12321" lon="-4.28311">
        <ele>32.34</ele>
        <time>2011-07-08T13:29:51Z</time>
      </trkpt>
      <trkpt lat="48.12323" lon="-4.28312">
        <ele>31.86</ele>
        <time>2011-07-08T13:29:52Z</time>
      </trkpt>
      <trkpt lat="48.12344" lon="-4.2832">
        <ele>29.46</ele>
        <time>2011-07-08T13:30:09Z</time>
      </trkpt>
      <trkpt lat="48.12351" lon="-4.28324">
        <ele>28.98</ele>
        <time>2011-07-08T13:30:14Z</time>
      </trkpt>
      <trkpt lat="48.1236" lon="-4.28325">
        <ele>29.46</ele>
        <time>2011-07-08T13:30:22Z</time>
      </trkpt>
      <trkpt lat="48.12368" lon="-4.28328">
        <ele>30.9</ele>
        <time>2011-07-08T13:30:29Z</time>
      </trkpt>
      <trkpt lat="48.12374" lon="-4.2833">
        <ele>31.86</ele>
        <time>2011-07-08T13:30:34Z</time>
      </trkpt>
      <trkpt lat="48.12378" lon="-4.28332">
        <ele>31.38</ele>
        <time>2011-07-08T13:30:38Z</time>
      </trkpt>
      <trkpt lat="48.12387" lon="-4.2834">
        <ele>29.94</ele>
        <time>2011-07-08T13:30:47Z</time>
      </trkpt>
      <trkpt lat="48.12394" lon="-4.28345">
        <ele>28.5</ele>
        <time>2011-07-08T13:30:53Z</time>
      </trkpt>
      <trkpt lat="48.12404" lon="-4.28357">
        <ele>26.57</ele>
        <time>2011-07-08T13:31:03Z</time>
      </trkpt>
      <trkpt lat="48.12408" lon="-4.2836">
        <ele>26.09</ele>
        <time>2011-07-08T13:31:07Z</time>
      </trkpt>
      <trkpt lat="48.12425" lon="-4.2837">
        <ele>23.69</ele>
        <time>2011-07-08T13:31:21Z</time>
      </trkpt>
      <trkpt lat="48.12434" lon="-4.28366">
        <ele>22.73</ele>
        <time>2011-07-08T13:31:30Z</time>
      </trkpt>
      <trkpt lat="48.12451" lon="-4.28376">
        <ele>22.25</ele>
        <time>2011-07-08T13:31:45Z</time>
      </trkpt>
      <trkpt lat="48.12456" lon="-4.28376">
        <ele>22.25</ele>
        <time>2011-07-08T13:31:48Z</time>
      </trkpt>
      <trkpt lat="48.12472" lon="-4.28384">
        <ele>19.36</ele>
        <time>2011-07-08T13:32:04Z</time>
      </trkpt>
      <trkpt lat="48.12482" lon="-4.28389">
        <ele>18.88</ele>
        <time>2011-07-08T13:32:13Z</time>
      </trkpt>
      <trkpt lat="48.12488" lon="-4.28391">
        <ele>18.4</ele>
        <time>2011-07-08T13:32:18Z</time>
      </trkpt>
      <trkpt lat="48.12508" lon="-4.28396">
        <ele>19.36</ele>
        <time>2011-07-08T13:32:34Z</time>
      </trkpt>
      <trkpt lat="48.12515" lon="-4.28401">
        <ele>20.32</ele>
        <time>2011-07-08T13:32:45Z</time>
      </trkpt>
      <trkpt lat="48.12531" lon="-4.28408">
        <ele>25.13</ele>
        <time>2011-07-08T13:32:57Z</time>
      </trkpt>
      <trkpt lat="48.12536" lon="-4.28413">
        <ele>25.61</ele>
        <time>2011-07-08T13:33:01Z</time>
      </trkpt>
      <trkpt lat="48.1254" lon="-4.28415">
        <ele>27.05</ele>
        <time>2011-07-08T13:33:05Z</time>
      </trkpt>
      <trkpt lat="48.1256" lon="-4.28415">
        <ele>26.09</ele>
        <time>2011-07-08T13:33:21Z</time>
      </trkpt>
      <trkpt lat="48.12562" lon="-4.28416">
        <ele>26.09</ele>
        <time>2011-07-08T13:33:23Z</time>
      </trkpt>
      <trkpt lat="48.12566" lon="-4.2842">
        <ele>25.13</ele>
        <time>2011-07-08T13:33:27Z</time>
      </trkpt>
      <trkpt lat="48.12578" lon="-4.28431">
        <ele>22.25</ele>
        <time>2011-07-08T13:33:40Z</time>
      </trkpt>
      <trkpt lat="48.12589" lon="-4.28449">
        <ele>22.25</ele>
        <time>2011-07-08T13:33:53Z</time>
      </trkpt>
      <trkpt lat="48.12595" lon="-4.28456">
        <ele>22.25</ele>
        <time>2011-07-08T13:33:59Z</time>
      </trkpt>
      <trkpt lat="48.12598" lon="-4.28458">
        <ele>21.77</ele>
        <time>2011-07-08T13:34:02Z</time>
      </trkpt>
      <trkpt lat="48.12602" lon="-4.28467">
        <ele>21.29</ele>
        <time>2011-07-08T13:34:08Z</time>
      </trkpt>
      <trkpt lat="48.12604" lon="-4.2847">
        <ele>21.29</ele>
        <time>2011-07-08T13:34:21Z</time>
      </trkpt>
      <trkpt lat="48.12604" lon="-4.2847">
        <ele>21.29</ele>
        <time>2011-07-08T13:34:41Z</time>
      </trkpt>
      <trkpt lat="48.12604" lon="-4.28469">
        <ele>21.77</ele>
        <time>2011-07-08T13:34:59Z</time>
      </trkpt>
      <trkpt lat="48.12606" lon="-4.2847">
        <ele>21.29</ele>
        <time>2011-07-08T13:35:13Z</time>
      </trkpt>
      <trkpt lat="48.12614" lon="-4.28455">
        <ele>19.36</ele>
        <time>2011-07-08T13:35:28Z</time>
      </trkpt>
      <trkpt lat="48.12615" lon="-4.28452">
        <ele>19.36</ele>
        <time>2011-07-08T13:35:30Z</time>
      </trkpt>
      <trkpt lat="48.12619" lon="-4.28429">
        <ele>20.81</ele>
        <time>2011-07-08T13:35:44Z</time>
      </trkpt>
      <trkpt lat="48.12624" lon="-4.28402">
        <ele>22.25</ele>
        <time>2011-07-08T13:35:59Z</time>
      </trkpt>
      <trkpt lat="48.12624" lon="-4.28401">
        <ele>22.25</ele>
        <time>2011-07-08T13:36:00Z</time>
      </trkpt>
      <trkpt lat="48.12627" lon="-4.28374">
        <ele>25.13</ele>
        <time>2011-07-08T13:36:15Z</time>
      </trkpt>
      <trkpt lat="48.12637" lon="-4.28353">
        <ele>25.13</ele>
        <time>2011-07-08T13:36:28Z</time>
      </trkpt>
      <trkpt lat="48.12644" lon="-4.28329">
        <ele>25.61</ele>
        <time>2011-07-08T13:36:42Z</time>
      </trkpt>
      <trkpt lat="48.12649" lon="-4.28304">
        <ele>26.09</ele>
        <time>2011-07-08T13:36:56Z</time>
      </trkpt>
      <trkpt lat="48.12657" lon="-4.28281">
        <ele>27.05</ele>
        <time>2011-07-08T13:37:09Z</time>
      </trkpt>
      <trkpt lat="48.12658" lon="-4.2827">
        <ele>27.53</ele>
        <time>2011-07-08T13:37:16Z</time>
      </trkpt>
      <trkpt lat="48.12658" lon="-4.28267">
        <ele>28.02</ele>
        <time>2011-07-08T13:37:18Z</time>
      </trkpt>
      <trkpt lat="48.1266" lon="-4.28262">
        <ele>28.02</ele>
        <time>2011-07-08T13:37:21Z</time>
      </trkpt>
      <trkpt lat="48.12665" lon="-4.28256">
        <ele>28.02</ele>
        <time>2011-07-08T13:37:26Z</time>
      </trkpt>
      <trkpt lat="48.12681" lon="-4.28244">
        <ele>27.53</ele>
        <time>2011-07-08T13:37:41Z</time>
      </trkpt>
      <trkpt lat="48.12686" lon="-4.28246">
        <ele>27.05</ele>
        <time>2011-07-08T13:37:46Z</time>
      </trkpt>
      <trkpt lat="48.12703" lon="-4.28234">
        <ele>25.61</ele>
        <time>2011-07-08T13:38:02Z</time>
      </trkpt>
      <trkpt lat="48.1272" lon="-4.28213">
        <ele>24.65</ele>
        <time>2011-07-08T13:38:19Z</time>
      </trkpt>
      <trkpt lat="48.12732" lon="-4.28193">
        <ele>23.21</ele>
        <time>2011-07-08T13:38:33Z</time>
      </trkpt>
      <trkpt lat="48.12745" lon="-4.2817">
        <ele>21.29</ele>
        <time>2011-07-08T13:38:49Z</time>
      </trkpt>
      <trkpt lat="48.12746" lon="-4.28168">
        <ele>21.29</ele>
        <time>2011-07-08T13:38:51Z</time>
      </trkpt>
      <trkpt lat="48.12748" lon="-4.28164">
        <ele>20.32</ele>
        <time>2011-07-08T13:38:56Z</time>
      </trkpt>
      <trkpt lat="48.12757" lon="-4.28146">
        <ele>19.36</ele>
        <time>2011-07-08T13:39:12Z</time>
      </trkpt>
      <trkpt lat="48.12763" lon="-4.28135">
        <ele>19.36</ele>
        <time>2011-07-08T13:39:33Z</time>
      </trkpt>
      <trkpt lat="48.12769" lon="-4.28109">
        <ele>19.84</ele>
        <time>2011-07-08T13:39:47Z</time>
      </trkpt>
      <trkpt lat="48.12779" lon="-4.28079">
        <ele>20.32</ele>
        <time>2011-07-08T13:40:04Z</time>
      </trkpt>
      <trkpt lat="48.12795" lon="-4.28073">
        <ele>18.4</ele>
        <time>2011-07-08T13:40:18Z</time>
      </trkpt>
      <trkpt lat="48.1281" lon="-4.28062">
        <ele>17.44</ele>
        <time>2011-07-08T13:40:33Z</time>
      </trkpt>
      <trkpt lat="48.12825" lon="-4.28043">
        <ele>16</ele>
        <time>2011-07-08T13:40:48Z</time>
      </trkpt>
      <trkpt lat="48.1284" lon="-4.28017">
        <ele>16.48</ele>
        <time>2011-07-08T13:41:05Z</time>
      </trkpt>
      <trkpt lat="48.12848" lon="-4.27991">
        <ele>16.96</ele>
        <time>2011-07-08T13:41:19Z</time>
      </trkpt>
      <trkpt lat="48.12846" lon="-4.2797">
        <ele>16.48</ele>
        <time>2011-07-08T13:41:33Z</time>
      </trkpt>
      <trkpt lat="48.12845" lon="-4.27969">
        <ele>16.48</ele>
        <time>2011-07-08T13:41:35Z</time>
      </trkpt>
      <trkpt lat="48.12841" lon="-4.27949">
        <ele>14.56</ele>
        <time>2011-07-08T13:41:49Z</time>
      </trkpt>
      <trkpt lat="48.12841" lon="-4.27938">
        <ele>14.56</ele>
        <time>2011-07-08T13:41:55Z</time>
      </trkpt>
      <trkpt lat="48.12851" lon="-4.27913">
        <ele>16.48</ele>
        <time>2011-07-08T13:42:10Z</time>
      </trkpt>
      <trkpt lat="48.12865" lon="-4.2789">
        <ele>18.88</ele>
        <time>2011-07-08T13:42:26Z</time>
      </trkpt>
      <trkpt lat="48.1288" lon="-4.27881">
        <ele>18.88</ele>
        <time>2011-07-08T13:42:39Z</time>
      </trkpt>
      <trkpt lat="48.12894" lon="-4.27873">
        <ele>20.32</ele>
        <time>2011-07-08T13:42:53Z</time>
      </trkpt>
      <trkpt lat="48.12908" lon="-4.27867">
        <ele>20.81</ele>
        <time>2011-07-08T13:43:05Z</time>
      </trkpt>
      <trkpt lat="48.12928" lon="-4.27866">
        <ele>22.25</ele>
        <time>2011-07-08T13:43:20Z</time>
      </trkpt>
      <trkpt lat="48.12933" lon="-4.27868">
        <ele>23.21</ele>
        <time>2011-07-08T13:43:25Z</time>
      </trkpt>
      <trkpt lat="48.12947" lon="-4.27864">
        <ele>24.17</ele>
        <time>2011-07-08T13:43:41Z</time>
      </trkpt>
      <trkpt lat="48.1295" lon="-4.27863">
        <ele>24.17</ele>
        <time>2011-07-08T13:43:48Z</time>
      </trkpt>
      <trkpt lat="48.12964" lon="-4.27858">
        <ele>22.25</ele>
        <time>2011-07-08T13:44:01Z</time>
      </trkpt>
      <trkpt lat="48.12976" lon="-4.27846">
        <ele>20.32</ele>
        <time>2011-07-08T13:44:16Z</time>
      </trkpt>
      <trkpt lat="48.1299" lon="-4.27834">
        <ele>17.44</ele>
        <time>2011-07-08T13:44:31Z</time>
      </trkpt>
      <trkpt lat="48.13004" lon="-4.27809">
        <ele>16.48</ele>
        <time>2011-07-08T13:44:48Z</time>
      </trkpt>
      <trkpt lat="48.1301" lon="-4.27795">
        <ele>16.96</ele>
        <time>2011-07-08T13:45:02Z</time>
      </trkpt>
      <trkpt lat="48.13018" lon="-4.27779">
        <ele>18.4</ele>
        <time>2011-07-08T13:45:15Z</time>
      </trkpt>
      <trkpt lat="48.13027" lon="-4.27761">
        <ele>20.32</ele>
        <time>2011-07-08T13:45:29Z</time>
      </trkpt>
      <trkpt lat="48.13041" lon="-4.27748">
        <ele>21.77</ele>
        <time>2011-07-08T13:45:42Z</time>
      </trkpt>
      <trkpt lat="48.13059" lon="-4.27731">
        <ele>22.73</ele>
        <time>2011-07-08T13:45:58Z</time>
      </trkpt>
      <trkpt lat="48.13075" lon="-4.27714">
        <ele>22.73</ele>
        <time>2011-07-08T13:46:12Z</time>
      </trkpt>
      <trkpt lat="48.13091" lon="-4.27691">
        <ele>23.69</ele>
        <time>2011-07-08T13:46:29Z</time>
      </trkpt>
      <trkpt lat="48.13094" lon="-4.27686">
        <ele>24.65</ele>
        <time>2011-07-08T13:46:44Z</time>
      </trkpt>
      <trkpt lat="48.13094" lon="-4.27686">
        <ele>24.65</ele>
        <time>2011-07-08T13:46:46Z</time>
      </trkpt>
      <trkpt lat="48.13096" lon="-4.27674">
        <ele>25.13</ele>
        <time>2011-07-08T13:46:54Z</time>
      </trkpt>
      <trkpt lat="48.131" lon="-4.27665">
        <ele>26.57</ele>
        <time>2011-07-08T13:47:01Z</time>
      </trkpt>
      <trkpt lat="48.13103" lon="-4.2766">
        <ele>26.57</ele>
        <time>2011-07-08T13:47:05Z</time>
      </trkpt>
      <trkpt lat="48.13111" lon="-4.27643">
        <ele>27.53</ele>
        <time>2011-07-08T13:47:17Z</time>
      </trkpt>
      <trkpt lat="48.13115" lon="-4.27628">
        <ele>28.5</ele>
        <time>2011-07-08T13:47:29Z</time>
      </trkpt>
      <trkpt lat="48.13121" lon="-4.27614">
        <ele>32.82</ele>
        <time>2011-07-08T13:47:42Z</time>
      </trkpt>
      <trkpt lat="48.13126" lon="-4.27599">
        <ele>36.19</ele>
        <time>2011-07-08T13:47:55Z</time>
      </trkpt>
      <trkpt lat="48.13128" lon="-4.27588">
        <ele>37.63</ele>
        <time>2011-07-08T13:48:07Z</time>
      </trkpt>
      <trkpt lat="48.13131" lon="-4.2758">
        <ele>38.59</ele>
        <time>2011-07-08T13:48:22Z</time>
      </trkpt>
      <trkpt lat="48.13137" lon="-4.27573">
        <ele>40.51</ele>
        <time>2011-07-08T13:48:31Z</time>
      </trkpt>
      <trkpt lat="48.13148" lon="-4.27575">
        <ele>39.55</ele>
        <time>2011-07-08T13:48:45Z</time>
      </trkpt>
      <trkpt lat="48.13155" lon="-4.27577">
        <ele>36.67</ele>
        <time>2011-07-08T13:48:55Z</time>
      </trkpt>
      <trkpt lat="48.13156" lon="-4.27578">
        <ele>35.71</ele>
        <time>2011-07-08T13:48:57Z</time>
      </trkpt>
      <trkpt lat="48.13163" lon="-4.2758">
        <ele>34.74</ele>
        <time>2011-07-08T13:49:05Z</time>
      </trkpt>
      <trkpt lat="48.13178" lon="-4.27575">
        <ele>33.3</ele>
        <time>2011-07-08T13:49:20Z</time>
      </trkpt>
      <trkpt lat="48.13194" lon="-4.27575">
        <ele>32.82</ele>
        <time>2011-07-08T13:49:33Z</time>
      </trkpt>
      <trkpt lat="48.13211" lon="-4.27568">
        <ele>31.86</ele>
        <time>2011-07-08T13:49:47Z</time>
      </trkpt>
      <trkpt lat="48.13225" lon="-4.27567">
        <ele>29.46</ele>
        <time>2011-07-08T13:50:01Z</time>
      </trkpt>
      <trkpt lat="48.1324" lon="-4.27559">
        <ele>26.09</ele>
        <time>2011-07-08T13:50:16Z</time>
      </trkpt>
      <trkpt lat="48.13256" lon="-4.27553">
        <ele>25.13</ele>
        <time>2011-07-08T13:50:30Z</time>
      </trkpt>
      <trkpt lat="48.13275" lon="-4.27552">
        <ele>24.17</ele>
        <time>2011-07-08T13:50:44Z</time>
      </trkpt>
      <trkpt lat="48.13292" lon="-4.27551">
        <ele>22.25</ele>
        <time>2011-07-08T13:51:00Z</time>
      </trkpt>
      <trkpt lat="48.1331" lon="-4.27554">
        <ele>18.4</ele>
        <time>2011-07-08T13:51:15Z</time>
      </trkpt>
      <trkpt lat="48.13317" lon="-4.27551">
        <ele>17.44</ele>
        <time>2011-07-08T13:51:22Z</time>
      </trkpt>
      <trkpt lat="48.13321" lon="-4.27546">
        <ele>17.44</ele>
        <time>2011-07-08T13:51:27Z</time>
      </trkpt>
      <trkpt lat="48.13337" lon="-4.27529">
        <ele>16.96</ele>
        <time>2011-07-08T13:51:43Z</time>
      </trkpt>
      <trkpt lat="48.13347" lon="-4.27508">
        <ele>15.52</ele>
        <time>2011-07-08T13:51:58Z</time>
      </trkpt>
      <trkpt lat="48.1335" lon="-4.27495">
        <ele>16</ele>
        <time>2011-07-08T13:52:06Z</time>
      </trkpt>
      <trkpt lat="48.13353" lon="-4.27468">
        <ele>16</ele>
        <time>2011-07-08T13:52:22Z</time>
      </trkpt>
      <trkpt lat="48.13353" lon="-4.27457">
        <ele>16.48</ele>
        <time>2011-07-08T13:52:28Z</time>
      </trkpt>
      <trkpt lat="48.13353" lon="-4.27447">
        <ele>16.48</ele>
        <time>2011-07-08T13:52:34Z</time>
      </trkpt>
      <trkpt lat="48.13354" lon="-4.27435">
        <ele>16.96</ele>
        <time>2011-07-08T13:52:49Z</time>
      </trkpt>
      <trkpt lat="48.13356" lon="-4.27422">
        <ele>16.48</ele>
        <time>2011-07-08T13:53:11Z</time>
      </trkpt>
      <trkpt lat="48.13355" lon="-4.27398">
        <ele>15.04</ele>
        <time>2011-07-08T13:53:24Z</time>
      </trkpt>
      <trkpt lat="48.13351" lon="-4.27394">
        <ele>14.08</ele>
        <time>2011-07-08T13:53:28Z</time>
      </trkpt>
      <trkpt lat="48.13349" lon="-4.27392">
        <ele>13.6</ele>
        <time>2011-07-08T13:53:30Z</time>
      </trkpt>
      <trkpt lat="48.13338" lon="-4.27388">
        <ele>13.12</ele>
        <time>2011-07-08T13:53:42Z</time>
      </trkpt>
      <trkpt lat="48.13325" lon="-4.27363">
        <ele>12.63</ele>
        <time>2011-07-08T13:53:59Z</time>
      </trkpt>
      <trkpt lat="48.1332" lon="-4.27356">
        <ele>13.12</ele>
        <time>2011-07-08T13:54:06Z</time>
      </trkpt>
      <trkpt lat="48.13317" lon="-4.27348">
        <ele>14.08</ele>
        <time>2011-07-08T13:54:11Z</time>
      </trkpt>
      <trkpt lat="48.13316" lon="-4.27331">
        <ele>15.52</ele>
        <time>2011-07-08T13:54:20Z</time>
      </trkpt>
      <trkpt lat="48.13309" lon="-4.27323">
        <ele>14.56</ele>
        <time>2011-07-08T13:54:33Z</time>
      </trkpt>
      <trkpt lat="48.13302" lon="-4.27324">
        <ele>15.04</ele>
        <time>2011-07-08T13:54:46Z</time>
      </trkpt>
      <trkpt lat="48.13298" lon="-4.27325">
        <ele>14.56</ele>
        <time>2011-07-08T13:54:54Z</time>
      </trkpt>
      <trkpt lat="48.13295" lon="-4.27326">
        <ele>15.52</ele>
        <time>2011-07-08T13:55:06Z</time>
      </trkpt>
      <trkpt lat="48.1329" lon="-4.27326">
        <ele>17.44</ele>
        <time>2011-07-08T13:55:18Z</time>
      </trkpt>
      <trkpt lat="48.13287" lon="-4.27321">
        <ele>20.32</ele>
        <time>2011-07-08T13:55:24Z</time>
      </trkpt>
      <trkpt lat="48.13291" lon="-4.27302">
        <ele>24.65</ele>
        <time>2011-07-08T13:55:36Z</time>
      </trkpt>
      <trkpt lat="48.13291" lon="-4.27279">
        <ele>25.13</ele>
        <time>2011-07-08T13:55:50Z</time>
      </trkpt>
      <trkpt lat="48.13292" lon="-4.27255">
        <ele>23.69</ele>
        <time>2011-07-08T13:56:05Z</time>
      </trkpt>
      <trkpt lat="48.13293" lon="-4.27236">
        <ele>20.32</ele>
        <time>2011-07-08T13:56:18Z</time>
      </trkpt>
      <trkpt lat="48.13294" lon="-4.27214">
        <ele>17.44</ele>
        <time>2011-07-08T13:56:33Z</time>
      </trkpt>
      <trkpt lat="48.133" lon="-4.27194">
        <ele>16.96</ele>
        <time>2011-07-08T13:56:45Z</time>
      </trkpt>
      <trkpt lat="48.13297" lon="-4.27187">
        <ele>16.48</ele>
        <time>2011-07-08T13:56:49Z</time>
      </trkpt>
      <trkpt lat="48.13284" lon="-4.27178">
        <ele>16</ele>
        <time>2011-07-08T13:57:04Z</time>
      </trkpt>
      <trkpt lat="48.13283" lon="-4.27174">
        <ele>16.48</ele>
        <time>2011-07-08T13:57:08Z</time>
      </trkpt>
      <trkpt lat="48.13279" lon="-4.27167">
        <ele>16.96</ele>
        <time>2011-07-08T13:57:20Z</time>
      </trkpt>
      <trkpt lat="48.13278" lon="-4.27165">
        <ele>16.48</ele>
        <time>2011-07-08T13:57:26Z</time>
      </trkpt>
      <trkpt lat="48.13275" lon="-4.27162">
        <ele>15.04</ele>
        <time>2011-07-08T13:57:29Z</time>
      </trkpt>
      <trkpt lat="48.13261" lon="-4.27158">
        <ele>12.63</ele>
        <time>2011-07-08T13:57:42Z</time>
      </trkpt>
      <trkpt lat="48.13255" lon="-4.2716">
        <ele>13.12</ele>
        <time>2011-07-08T13:57:55Z</time>
      </trkpt>
      <trkpt lat="48.13255" lon="-4.27159">
        <ele>13.6</ele>
        <time>2011-07-08T13:58:12Z</time>
      </trkpt>
      <trkpt lat="48.13255" lon="-4.27159">
        <ele>13.6</ele>
        <time>2011-07-08T13:58:29Z</time>
      </trkpt>
      <trkpt lat="48.13255" lon="-4.27158">
        <ele>14.56</ele>
        <time>2011-07-08T13:58:47Z</time>
      </trkpt>
      <trkpt lat="48.13255" lon="-4.27156">
        <ele>15.04</ele>
        <time>2011-07-08T13:58:59Z</time>
      </trkpt>
      <trkpt lat="48.13254" lon="-4.27156">
        <ele>15.52</ele>
        <time>2011-07-08T13:59:22Z</time>
      </trkpt>
      <trkpt lat="48.13254" lon="-4.27156">
        <ele>15.52</ele>
        <time>2011-07-08T13:59:27Z</time>
      </trkpt>
      <trkpt lat="48.13255" lon="-4.27156">
        <ele>16.96</ele>
        <time>2011-07-08T13:59:38Z</time>
      </trkpt>
      <trkpt lat="48.13255" lon="-4.27156">
        <ele>16.96</ele>
        <time>2011-07-08T14:00:04Z</time>
      </trkpt>
      <trkpt lat="48.13254" lon="-4.27156">
        <ele>18.88</ele>
        <time>2011-07-08T14:00:19Z</time>
      </trkpt>
      <trkpt lat="48.13254" lon="-4.27156">
        <ele>18.88</ele>
        <time>2011-07-08T14:00:22Z</time>
      </trkpt>
      <trkpt lat="48.13255" lon="-4.27155">
        <ele>19.36</ele>
        <time>2011-07-08T14:00:33Z</time>
      </trkpt>
      <trkpt lat="48.13255" lon="-4.27154">
        <ele>19.84</ele>
        <time>2011-07-08T14:00:49Z</time>
      </trkpt>
      <trkpt lat="48.13255" lon="-4.27154">
        <ele>21.29</ele>
        <time>2011-07-08T14:01:04Z</time>
      </trkpt>
      <trkpt lat="48.13255" lon="-4.27154">
        <ele>21.29</ele>
        <time>2011-07-08T14:01:24Z</time>
      </trkpt>
      <trkpt lat="48.13255" lon="-4.27154">
        <ele>21.29</ele>
        <time>2011-07-08T14:01:49Z</time>
      </trkpt>
      <trkpt lat="48.13255" lon="-4.27154">
        <ele>20.81</ele>
        <time>2011-07-08T14:02:26Z</time>
      </trkpt>
      <trkpt lat="48.13254" lon="-4.27152">
        <ele>21.29</ele>
        <time>2011-07-08T14:02:53Z</time>
      </trkpt>
      <trkpt lat="48.13251" lon="-4.27148">
        <ele>20.81</ele>
        <time>2011-07-08T14:02:59Z</time>
      </trkpt>
      <trkpt lat="48.13242" lon="-4.27135">
        <ele>15.52</ele>
        <time>2011-07-08T14:03:13Z</time>
      </trkpt>
      <trkpt lat="48.13234" lon="-4.27117">
        <ele>14.08</ele>
        <time>2011-07-08T14:03:24Z</time>
      </trkpt>
      <trkpt lat="48.1323" lon="-4.27113">
        <ele>14.08</ele>
        <time>2011-07-08T14:03:30Z</time>
      </trkpt>
      <trkpt lat="48.13227" lon="-4.27113">
        <ele>13.6</ele>
        <time>2011-07-08T14:03:33Z</time>
      </trkpt>
      <trkpt lat="48.13219" lon="-4.27114">
        <ele>14.08</ele>
        <time>2011-07-08T14:03:43Z</time>
      </trkpt>
      <trkpt lat="48.13207" lon="-4.27105">
        <ele>15.52</ele>
        <time>2011-07-08T14:03:56Z</time>
      </trkpt>
      <trkpt lat="48.13201" lon="-4.27099">
        <ele>16.96</ele>
        <time>2011-07-08T14:04:12Z</time>
      </trkpt>
      <trkpt lat="48.132" lon="-4.27098">
        <ele>16.96</ele>
        <time>2011-07-08T14:04:13Z</time>
      </trkpt>
      <trkpt lat="48.13195" lon="-4.27095">
        <ele>16.96</ele>
        <time>2011-07-08T14:04:17Z</time>
      </trkpt>
      <trkpt lat="48.13178" lon="-4.27081">
        <ele>16</ele>
        <time>2011-07-08T14:04:32Z</time>
      </trkpt>
      <trkpt lat="48.13174" lon="-4.27079">
        <ele>15.52</ele>
        <time>2011-07-08T14:04:35Z</time>
      </trkpt>
      <trkpt lat="48.13161" lon="-4.27068">
        <ele>15.04</ele>
        <time>2011-07-08T14:04:49Z</time>
      </trkpt>
      <trkpt lat="48.13143" lon="-4.2705">
        <ele>13.12</ele>
        <time>2011-07-08T14:05:04Z</time>
      </trkpt>
      <trkpt lat="48.13141" lon="-4.27049">
        <ele>13.12</ele>
        <time>2011-07-08T14:05:06Z</time>
      </trkpt>
      <trkpt lat="48.13138" lon="-4.27047">
        <ele>12.63</ele>
        <time>2011-07-08T14:05:08Z</time>
      </trkpt>
      <trkpt lat="48.13132" lon="-4.27043">
        <ele>12.15</ele>
        <time>2011-07-08T14:05:14Z</time>
      </trkpt>
      <trkpt lat="48.13128" lon="-4.27041">
        <ele>13.12</ele>
        <time>2011-07-08T14:05:20Z</time>
      </trkpt>
      <trkpt lat="48.13126" lon="-4.2704">
        <ele>13.12</ele>
        <time>2011-07-08T14:05:22Z</time>
      </trkpt>
      <trkpt lat="48.13125" lon="-4.27036">
        <ele>13.12</ele>
        <time>2011-07-08T14:05:25Z</time>
      </trkpt>
      <trkpt lat="48.13114" lon="-4.27016">
        <ele>11.19</ele>
        <time>2011-07-08T14:05:39Z</time>
      </trkpt>
      <trkpt lat="48.13105" lon="-4.27003">
        <ele>10.71</ele>
        <time>2011-07-08T14:05:50Z</time>
      </trkpt>
      <trkpt lat="48.13102" lon="-4.27002">
        <ele>10.23</ele>
        <time>2011-07-08T14:05:59Z</time>
      </trkpt>
      <trkpt lat="48.131" lon="-4.27001">
        <ele>10.23</ele>
        <time>2011-07-08T14:06:02Z</time>
      </trkpt>
      <trkpt lat="48.13098" lon="-4.26994">
        <ele>10.23</ele>
        <time>2011-07-08T14:06:06Z</time>
      </trkpt>
      <trkpt lat="48.13092" lon="-4.26981">
        <ele>10.23</ele>
        <time>2011-07-08T14:06:13Z</time>
      </trkpt>
      <trkpt lat="48.13081" lon="-4.2696">
        <ele>9.27</ele>
        <time>2011-07-08T14:06:27Z</time>
      </trkpt>
      <trkpt lat="48.13077" lon="-4.26945">
        <ele>7.35</ele>
        <time>2011-07-08T14:06:38Z</time>
      </trkpt>
      <trkpt lat="48.13076" lon="-4.26942">
        <ele>6.39</ele>
        <time>2011-07-08T14:06:41Z</time>
      </trkpt>
      <trkpt lat="48.13063" lon="-4.26931">
        <ele>5.91</ele>
        <time>2011-07-08T14:06:54Z</time>
      </trkpt>
      <trkpt lat="48.13052" lon="-4.26914">
        <ele>5.42</ele>
        <time>2011-07-08T14:07:07Z</time>
      </trkpt>
      <trkpt lat="48.13044" lon="-4.26902">
        <ele>4.94</ele>
        <time>2011-07-08T14:07:16Z</time>
      </trkpt>
      <trkpt lat="48.13033" lon="-4.26894">
        <ele>3.5</ele>
        <time>2011-07-08T14:07:26Z</time>
      </trkpt>
      <trkpt lat="48.1302" lon="-4.26876">
        <ele>3.02</ele>
        <time>2011-07-08T14:07:39Z</time>
      </trkpt>
      <trkpt lat="48.13017" lon="-4.2687">
        <ele>3.98</ele>
        <time>2011-07-08T14:07:42Z</time>
      </trkpt>
      <trkpt lat="48.1301" lon="-4.2684">
        <ele>6.39</ele>
        <time>2011-07-08T14:07:57Z</time>
      </trkpt>
      <trkpt lat="48.12996" lon="-4.26819">
        <ele>6.87</ele>
        <time>2011-07-08T14:08:12Z</time>
      </trkpt>
      <trkpt lat="48.12985" lon="-4.2681">
        <ele>8.79</ele>
        <time>2011-07-08T14:08:21Z</time>
      </trkpt>
      <trkpt lat="48.12967" lon="-4.26796">
        <ele>9.75</ele>
        <time>2011-07-08T14:08:37Z</time>
      </trkpt>
      <trkpt lat="48.12951" lon="-4.26783">
        <ele>11.19</ele>
        <time>2011-07-08T14:08:52Z</time>
      </trkpt>
      <trkpt lat="48.12939" lon="-4.26769">
        <ele>13.6</ele>
        <time>2011-07-08T14:09:05Z</time>
      </trkpt>
      <trkpt lat="48.12929" lon="-4.26755">
        <ele>14.56</ele>
        <time>2011-07-08T14:09:17Z</time>
      </trkpt>
      <trkpt lat="48.12927" lon="-4.26752">
        <ele>15.04</ele>
        <time>2011-07-08T14:09:20Z</time>
      </trkpt>
      <trkpt lat="48.12915" lon="-4.26737">
        <ele>17.92</ele>
        <time>2011-07-08T14:09:34Z</time>
      </trkpt>
      <trkpt lat="48.12899" lon="-4.26725">
        <ele>19.84</ele>
        <time>2011-07-08T14:09:49Z</time>
      </trkpt>
      <trkpt lat="48.12889" lon="-4.26724">
        <ele>19.36</ele>
        <time>2011-07-08T14:09:57Z</time>
      </trkpt>
      <trkpt lat="48.12886" lon="-4.26726">
        <ele>19.36</ele>
        <time>2011-07-08T14:10:00Z</time>
      </trkpt>
      <trkpt lat="48.12876" lon="-4.26724">
        <ele>19.36</ele>
        <time>2011-07-08T14:10:09Z</time>
      </trkpt>
      <trkpt lat="48.12867" lon="-4.26724">
        <ele>19.36</ele>
        <time>2011-07-08T14:10:17Z</time>
      </trkpt>
      <trkpt lat="48.12856" lon="-4.26722">
        <ele>19.84</ele>
        <time>2011-07-08T14:10:26Z</time>
      </trkpt>
      <trkpt lat="48.12854" lon="-4.26725">
        <ele>20.32</ele>
        <time>2011-07-08T14:10:31Z</time>
      </trkpt>
      <trkpt lat="48.12847" lon="-4.26741">
        <ele>15.04</ele>
        <time>2011-07-08T14:10:43Z</time>
      </trkpt>
      <trkpt lat="48.12842" lon="-4.26765">
        <ele>12.15</ele>
        <time>2011-07-08T14:10:57Z</time>
      </trkpt>
      <trkpt lat="48.12836" lon="-4.2679">
        <ele>14.56</ele>
        <time>2011-07-08T14:11:11Z</time>
      </trkpt>
      <trkpt lat="48.12831" lon="-4.26806">
        <ele>17.44</ele>
        <time>2011-07-08T14:11:21Z</time>
      </trkpt>
      <trkpt lat="48.12825" lon="-4.26829">
        <ele>24.17</ele>
        <time>2011-07-08T14:11:35Z</time>
      </trkpt>
      <trkpt lat="48.12824" lon="-4.26839">
        <ele>25.13</ele>
        <time>2011-07-08T14:11:41Z</time>
      </trkpt>
      <trkpt lat="48.12824" lon="-4.26842">
        <ele>25.61</ele>
        <time>2011-07-08T14:11:43Z</time>
      </trkpt>
      <trkpt lat="48.12822" lon="-4.26868">
        <ele>30.42</ele>
        <time>2011-07-08T14:11:59Z</time>
      </trkpt>
      <trkpt lat="48.12821" lon="-4.26883">
        <ele>31.86</ele>
        <time>2011-07-08T14:12:08Z</time>
      </trkpt>
      <trkpt lat="48.1282" lon="-4.26887">
        <ele>32.34</ele>
        <time>2011-07-08T14:12:10Z</time>
      </trkpt>
      <trkpt lat="48.1282" lon="-4.26914">
        <ele>34.26</ele>
        <time>2011-07-08T14:12:24Z</time>
      </trkpt>
      <trkpt lat="48.12822" lon="-4.2694">
        <ele>32.34</ele>
        <time>2011-07-08T14:12:38Z</time>
      </trkpt>
      <trkpt lat="48.12823" lon="-4.26947">
        <ele>32.34</ele>
        <time>2011-07-08T14:12:42Z</time>
      </trkpt>
      <trkpt lat="48.12823" lon="-4.26973">
        <ele>36.19</ele>
        <time>2011-07-08T14:12:55Z</time>
      </trkpt>
      <trkpt lat="48.1282" lon="-4.26995">
        <ele>37.15</ele>
        <time>2011-07-08T14:13:07Z</time>
      </trkpt>
      <trkpt lat="48.12812" lon="-4.27018">
        <ele>37.63</ele>
        <time>2011-07-08T14:13:21Z</time>
      </trkpt>
      <trkpt lat="48.12803" lon="-4.27038">
        <ele>38.11</ele>
        <time>2011-07-08T14:13:35Z</time>
      </trkpt>
      <trkpt lat="48.12787" lon="-4.27058">
        <ele>40.51</ele>
        <time>2011-07-08T14:13:51Z</time>
      </trkpt>
      <trkpt lat="48.12786" lon="-4.27059">
        <ele>40.51</ele>
        <time>2011-07-08T14:13:52Z</time>
      </trkpt>
      <trkpt lat="48.12785" lon="-4.27067">
        <ele>40.99</ele>
        <time>2011-07-08T14:13:57Z</time>
      </trkpt>
      <trkpt lat="48.12786" lon="-4.27077">
        <ele>40.51</ele>
        <time>2011-07-08T14:14:02Z</time>
      </trkpt>
      <trkpt lat="48.12799" lon="-4.27095">
        <ele>41.95</ele>
        <time>2011-07-08T14:14:16Z</time>
      </trkpt>
      <trkpt lat="48.12817" lon="-4.27105">
        <ele>41.95</ele>
        <time>2011-07-08T14:14:32Z</time>
      </trkpt>
      <trkpt lat="48.12835" lon="-4.27114">
        <ele>41.95</ele>
        <time>2011-07-08T14:14:47Z</time>
      </trkpt>
      <trkpt lat="48.12844" lon="-4.27119">
        <ele>41.47</ele>
        <time>2011-07-08T14:14:55Z</time>
      </trkpt>
      <trkpt lat="48.12858" lon="-4.27128">
        <ele>41.47</ele>
        <time>2011-07-08T14:15:08Z</time>
      </trkpt>
      <trkpt lat="48.12867" lon="-4.2714">
        <ele>41.47</ele>
        <time>2011-07-08T14:15:17Z</time>
      </trkpt>
      <trkpt lat="48.12869" lon="-4.27155">
        <ele>42.44</ele>
        <time>2011-07-08T14:15:25Z</time>
      </trkpt>
      <trkpt lat="48.12867" lon="-4.27165">
        <ele>43.4</ele>
        <time>2011-07-08T14:15:31Z</time>
      </trkpt>
      <trkpt lat="48.12865" lon="-4.27174">
        <ele>43.4</ele>
        <time>2011-07-08T14:15:43Z</time>
      </trkpt>
      <trkpt lat="48.12865" lon="-4.27175">
        <ele>44.36</ele>
        <time>2011-07-08T14:15:50Z</time>
      </trkpt>
      <trkpt lat="48.12865" lon="-4.27175">
        <ele>44.36</ele>
        <time>2011-07-08T14:16:22Z</time>
      </trkpt>
      <trkpt lat="48.12865" lon="-4.27175">
        <ele>44.84</ele>
        <time>2011-07-08T14:16:49Z</time>
      </trkpt>
      <trkpt lat="48.12865" lon="-4.27176">
        <ele>45.32</ele>
        <time>2011-07-08T14:17:07Z</time>
      </trkpt>
      <trkpt lat="48.12865" lon="-4.27175">
        <ele>45.32</ele>
        <time>2011-07-08T14:17:10Z</time>
      </trkpt>
      <trkpt lat="48.12858" lon="-4.27184">
        <ele>44.84</ele>
        <time>2011-07-08T14:17:20Z</time>
      </trkpt>
      <trkpt lat="48.12856" lon="-4.27186">
        <ele>44.84</ele>
        <time>2011-07-08T14:17:23Z</time>
      </trkpt>
      <trkpt lat="48.1284" lon="-4.27207">
        <ele>44.84</ele>
        <time>2011-07-08T14:17:39Z</time>
      </trkpt>
      <trkpt lat="48.12824" lon="-4.27231">
        <ele>44.84</ele>
        <time>2011-07-08T14:17:55Z</time>
      </trkpt>
      <trkpt lat="48.12809" lon="-4.27253">
        <ele>44.84</ele>
        <time>2011-07-08T14:18:11Z</time>
      </trkpt>
      <trkpt lat="48.12791" lon="-4.27281">
        <ele>44.36</ele>
        <time>2011-07-08T14:18:29Z</time>
      </trkpt>
      <trkpt lat="48.12775" lon="-4.27303">
        <ele>45.8</ele>
        <time>2011-07-08T14:18:45Z</time>
      </trkpt>
      <trkpt lat="48.12756" lon="-4.27329">
        <ele>45.8</ele>
        <time>2011-07-08T14:19:03Z</time>
      </trkpt>
      <trkpt lat="48.12741" lon="-4.2735">
        <ele>47.72</ele>
        <time>2011-07-08T14:19:18Z</time>
      </trkpt>
      <trkpt lat="48.12724" lon="-4.27376">
        <ele>48.2</ele>
        <time>2011-07-08T14:19:35Z</time>
      </trkpt>
      <trkpt lat="48.12707" lon="-4.274">
        <ele>49.16</ele>
        <time>2011-07-08T14:19:52Z</time>
      </trkpt>
      <trkpt lat="48.12693" lon="-4.27421">
        <ele>49.16</ele>
        <time>2011-07-08T14:20:07Z</time>
      </trkpt>
      <trkpt lat="48.12678" lon="-4.27441">
        <ele>51.09</ele>
        <time>2011-07-08T14:20:22Z</time>
      </trkpt>
      <trkpt lat="48.12664" lon="-4.27462">
        <ele>52.05</ele>
        <time>2011-07-08T14:20:36Z</time>
      </trkpt>
      <trkpt lat="48.12649" lon="-4.27483">
        <ele>52.53</ele>
        <time>2011-07-08T14:20:51Z</time>
      </trkpt>
      <trkpt lat="48.12636" lon="-4.27503">
        <ele>53.01</ele>
        <time>2011-07-08T14:21:06Z</time>
      </trkpt>
      <trkpt lat="48.12623" lon="-4.27522">
        <ele>53.49</ele>
        <time>2011-07-08T14:21:19Z</time>
      </trkpt>
      <trkpt lat="48.12608" lon="-4.27544">
        <ele>53.97</ele>
        <time>2011-07-08T14:21:35Z</time>
      </trkpt>
      <trkpt lat="48.12596" lon="-4.27561">
        <ele>54.93</ele>
        <time>2011-07-08T14:21:47Z</time>
      </trkpt>
      <trkpt lat="48.12583" lon="-4.27578">
        <ele>56.86</ele>
        <time>2011-07-08T14:22:00Z</time>
      </trkpt>
      <trkpt lat="48.12571" lon="-4.27596">
        <ele>58.78</ele>
        <time>2011-07-08T14:22:14Z</time>
      </trkpt>
      <trkpt lat="48.1257" lon="-4.27608">
        <ele>57.34</ele>
        <time>2011-07-08T14:22:20Z</time>
      </trkpt>
      <trkpt lat="48.12583" lon="-4.27632">
        <ele>55.41</ele>
        <time>2011-07-08T14:22:35Z</time>
      </trkpt>
      <trkpt lat="48.12591" lon="-4.27656">
        <ele>53.49</ele>
        <time>2011-07-08T14:22:49Z</time>
      </trkpt>
      <trkpt lat="48.12592" lon="-4.27686">
        <ele>53.97</ele>
        <time>2011-07-08T14:23:04Z</time>
      </trkpt>
      <trkpt lat="48.12595" lon="-4.27716">
        <ele>53.97</ele>
        <time>2011-07-08T14:23:19Z</time>
      </trkpt>
      <trkpt lat="48.12595" lon="-4.27748">
        <ele>53.01</ele>
        <time>2011-07-08T14:23:35Z</time>
      </trkpt>
      <trkpt lat="48.12596" lon="-4.27779">
        <ele>52.53</ele>
        <time>2011-07-08T14:23:50Z</time>
      </trkpt>
      <trkpt lat="48.12597" lon="-4.27811">
        <ele>51.09</ele>
        <time>2011-07-08T14:24:06Z</time>
      </trkpt>
      <trkpt lat="48.12598" lon="-4.27842">
        <ele>50.61</ele>
        <time>2011-07-08T14:24:21Z</time>
      </trkpt>
      <trkpt lat="48.12599" lon="-4.27877">
        <ele>50.13</ele>
        <time>2011-07-08T14:24:38Z</time>
      </trkpt>
      <trkpt lat="48.126" lon="-4.2791">
        <ele>49.16</ele>
        <time>2011-07-08T14:24:54Z</time>
      </trkpt>
      <trkpt lat="48.12602" lon="-4.27934">
        <ele>48.2</ele>
        <time>2011-07-08T14:25:06Z</time>
      </trkpt>
      <trkpt lat="48.12604" lon="-4.27963">
        <ele>46.76</ele>
        <time>2011-07-08T14:25:22Z</time>
      </trkpt>
      <trkpt lat="48.12603" lon="-4.27975">
        <ele>46.28</ele>
        <time>2011-07-08T14:25:36Z</time>
      </trkpt>
      <trkpt lat="48.12605" lon="-4.27986">
        <ele>46.28</ele>
        <time>2011-07-08T14:25:42Z</time>
      </trkpt>
      <trkpt lat="48.12604" lon="-4.28001">
        <ele>46.76</ele>
        <time>2011-07-08T14:25:49Z</time>
      </trkpt>
      <trkpt lat="48.12604" lon="-4.28033">
        <ele>46.76</ele>
        <time>2011-07-08T14:26:05Z</time>
      </trkpt>
      <trkpt lat="48.12605" lon="-4.28063">
        <ele>45.8</ele>
        <time>2011-07-08T14:26:20Z</time>
      </trkpt>
      <trkpt lat="48.12606" lon="-4.28077">
        <ele>45.8</ele>
        <time>2011-07-08T14:26:27Z</time>
      </trkpt>
      <trkpt lat="48.12607" lon="-4.28111">
        <ele>43.88</ele>
        <time>2011-07-08T14:26:44Z</time>
      </trkpt>
      <trkpt lat="48.12608" lon="-4.28145">
        <ele>44.36</ele>
        <time>2011-07-08T14:27:01Z</time>
      </trkpt>
      <trkpt lat="48.12607" lon="-4.28176">
        <ele>41.95</ele>
        <time>2011-07-08T14:27:17Z</time>
      </trkpt>
      <trkpt lat="48.12606" lon="-4.28177">
        <ele>41.95</ele>
        <time>2011-07-08T14:27:18Z</time>
      </trkpt>
      <trkpt lat="48.12592" lon="-4.28194">
        <ele>40.51</ele>
        <time>2011-07-08T14:27:32Z</time>
      </trkpt>
      <trkpt lat="48.12576" lon="-4.28208">
        <ele>40.51</ele>
        <time>2011-07-08T14:27:46Z</time>
      </trkpt>
      <trkpt lat="48.12559" lon="-4.28223">
        <ele>40.03</ele>
        <time>2011-07-08T14:28:01Z</time>
      </trkpt>
      <trkpt lat="48.12559" lon="-4.28251">
        <ele>40.99</ele>
        <time>2011-07-08T14:28:16Z</time>
      </trkpt>
      <trkpt lat="48.12564" lon="-4.28278">
        <ele>39.55</ele>
        <time>2011-07-08T14:28:31Z</time>
      </trkpt>
      <trkpt lat="48.1257" lon="-4.28304">
        <ele>38.11</ele>
        <time>2011-07-08T14:28:45Z</time>
      </trkpt>
      <trkpt lat="48.12574" lon="-4.28319">
        <ele>36.67</ele>
        <time>2011-07-08T14:28:53Z</time>
      </trkpt>
      <trkpt lat="48.12579" lon="-4.28343">
        <ele>34.74</ele>
        <time>2011-07-08T14:29:07Z</time>
      </trkpt>
      <trkpt lat="48.12583" lon="-4.28356">
        <ele>33.78</ele>
        <time>2011-07-08T14:29:14Z</time>
      </trkpt>
      <trkpt lat="48.12585" lon="-4.28365">
        <ele>32.82</ele>
        <time>2011-07-08T14:29:19Z</time>
      </trkpt>
      <trkpt lat="48.12588" lon="-4.28377">
        <ele>31.38</ele>
        <time>2011-07-08T14:29:26Z</time>
      </trkpt>
      <trkpt lat="48.12595" lon="-4.28406">
        <ele>28.98</ele>
        <time>2011-07-08T14:29:42Z</time>
      </trkpt>
      <trkpt lat="48.12591" lon="-4.28418">
        <ele>27.53</ele>
        <time>2011-07-08T14:29:50Z</time>
      </trkpt>
      <trkpt lat="48.12574" lon="-4.28427">
        <ele>28.02</ele>
        <time>2011-07-08T14:30:05Z</time>
      </trkpt>
      <trkpt lat="48.12573" lon="-4.28427">
        <ele>28.02</ele>
        <time>2011-07-08T14:30:06Z</time>
      </trkpt>
      <trkpt lat="48.12565" lon="-4.28421">
        <ele>28.98</ele>
        <time>2011-07-08T14:30:16Z</time>
      </trkpt>
      <trkpt lat="48.12561" lon="-4.28415">
        <ele>30.42</ele>
        <time>2011-07-08T14:30:21Z</time>
      </trkpt>
      <trkpt lat="48.12557" lon="-4.28416">
        <ele>31.38</ele>
        <time>2011-07-08T14:30:26Z</time>
      </trkpt>
      <trkpt lat="48.12541" lon="-4.28415">
        <ele>32.34</ele>
        <time>2011-07-08T14:30:40Z</time>
      </trkpt>
      <trkpt lat="48.12524" lon="-4.2841">
        <ele>31.86</ele>
        <time>2011-07-08T14:30:55Z</time>
      </trkpt>
      <trkpt lat="48.12518" lon="-4.28409">
        <ele>31.38</ele>
        <time>2011-07-08T14:31:00Z</time>
      </trkpt>
      <trkpt lat="48.12514" lon="-4.28406">
        <ele>31.38</ele>
        <time>2011-07-08T14:31:04Z</time>
      </trkpt>
      <trkpt lat="48.12508" lon="-4.28405">
        <ele>30.42</ele>
        <time>2011-07-08T14:31:09Z</time>
      </trkpt>
      <trkpt lat="48.125" lon="-4.28401">
        <ele>30.42</ele>
        <time>2011-07-08T14:31:16Z</time>
      </trkpt>
      <trkpt lat="48.12479" lon="-4.28392">
        <ele>27.53</ele>
        <time>2011-07-08T14:31:33Z</time>
      </trkpt>
      <trkpt lat="48.12468" lon="-4.28386">
        <ele>27.05</ele>
        <time>2011-07-08T14:31:42Z</time>
      </trkpt>
      <trkpt lat="48.12449" lon="-4.28375">
        <ele>27.53</ele>
        <time>2011-07-08T14:31:57Z</time>
      </trkpt>
      <trkpt lat="48.12431" lon="-4.28367">
        <ele>27.53</ele>
        <time>2011-07-08T14:32:12Z</time>
      </trkpt>
      <trkpt lat="48.12413" lon="-4.2836">
        <ele>28.02</ele>
        <time>2011-07-08T14:32:28Z</time>
      </trkpt>
      <trkpt lat="48.12397" lon="-4.28346">
        <ele>33.78</ele>
        <time>2011-07-08T14:32:45Z</time>
      </trkpt>
      <trkpt lat="48.12389" lon="-4.2834">
        <ele>33.3</ele>
        <time>2011-07-08T14:32:53Z</time>
      </trkpt>
      <trkpt lat="48.12387" lon="-4.28337">
        <ele>32.82</ele>
        <time>2011-07-08T14:32:56Z</time>
      </trkpt>
      <trkpt lat="48.12381" lon="-4.28333">
        <ele>33.3</ele>
        <time>2011-07-08T14:33:02Z</time>
      </trkpt>
      <trkpt lat="48.12379" lon="-4.28332">
        <ele>33.78</ele>
        <time>2011-07-08T14:33:04Z</time>
      </trkpt>
      <trkpt lat="48.12359" lon="-4.28326">
        <ele>34.26</ele>
        <time>2011-07-08T14:33:21Z</time>
      </trkpt>
      <trkpt lat="48.12339" lon="-4.2832">
        <ele>33.78</ele>
        <time>2011-07-08T14:33:37Z</time>
      </trkpt>
      <trkpt lat="48.12321" lon="-4.28308">
        <ele>35.23</ele>
        <time>2011-07-08T14:33:53Z</time>
      </trkpt>
      <trkpt lat="48.1231" lon="-4.28297">
        <ele>36.19</ele>
        <time>2011-07-08T14:34:06Z</time>
      </trkpt>
      <trkpt lat="48.12299" lon="-4.28283">
        <ele>41.47</ele>
        <time>2011-07-08T14:34:21Z</time>
      </trkpt>
      <trkpt lat="48.12296" lon="-4.2828">
        <ele>41.47</ele>
        <time>2011-07-08T14:34:25Z</time>
      </trkpt>
      <trkpt lat="48.12294" lon="-4.28277">
        <ele>41.95</ele>
        <time>2011-07-08T14:34:28Z</time>
      </trkpt>
      <trkpt lat="48.12286" lon="-4.28264">
        <ele>43.4</ele>
        <time>2011-07-08T14:34:42Z</time>
      </trkpt>
      <trkpt lat="48.12278" lon="-4.28258">
        <ele>43.88</ele>
        <time>2011-07-08T14:34:52Z</time>
      </trkpt>
      <trkpt lat="48.12274" lon="-4.28253">
        <ele>43.88</ele>
        <time>2011-07-08T14:34:57Z</time>
      </trkpt>
      <trkpt lat="48.12267" lon="-4.28254">
        <ele>43.4</ele>
        <time>2011-07-08T14:35:04Z</time>
      </trkpt>
      <trkpt lat="48.12249" lon="-4.2826">
        <ele>39.55</ele>
        <time>2011-07-08T14:35:20Z</time>
      </trkpt>
      <trkpt lat="48.12246" lon="-4.28262">
        <ele>39.07</ele>
        <time>2011-07-08T14:35:23Z</time>
      </trkpt>
      <trkpt lat="48.12223" lon="-4.28275">
        <ele>34.74</ele>
        <time>2011-07-08T14:35:42Z</time>
      </trkpt>
      <trkpt lat="48.12204" lon="-4.28286">
        <ele>31.38</ele>
        <time>2011-07-08T14:35:57Z</time>
      </trkpt>
      <trkpt lat="48.12187" lon="-4.28289">
        <ele>30.42</ele>
        <time>2011-07-08T14:36:10Z</time>
      </trkpt>
      <trkpt lat="48.12165" lon="-4.28289">
        <ele>30.9</ele>
        <time>2011-07-08T14:36:27Z</time>
      </trkpt>
      <trkpt lat="48.12147" lon="-4.28287">
        <ele>30.42</ele>
        <time>2011-07-08T14:36:40Z</time>
      </trkpt>
      <trkpt lat="48.12138" lon="-4.28286">
        <ele>29.46</ele>
        <time>2011-07-08T14:36:49Z</time>
      </trkpt>
      <trkpt lat="48.12113" lon="-4.28284">
        <ele>28.5</ele>
        <time>2011-07-08T14:37:06Z</time>
      </trkpt>
      <trkpt lat="48.1209" lon="-4.28285">
        <ele>28.98</ele>
        <time>2011-07-08T14:37:23Z</time>
      </trkpt>
      <trkpt lat="48.12078" lon="-4.28284">
        <ele>29.94</ele>
        <time>2011-07-08T14:37:32Z</time>
      </trkpt>
      <trkpt lat="48.12077" lon="-4.28281">
        <ele>30.42</ele>
        <time>2011-07-08T14:37:35Z</time>
      </trkpt>
      <trkpt lat="48.12069" lon="-4.28273">
        <ele>32.34</ele>
        <time>2011-07-08T14:37:46Z</time>
      </trkpt>
      <trkpt lat="48.12051" lon="-4.28259">
        <ele>31.86</ele>
        <time>2011-07-08T14:38:02Z</time>
      </trkpt>
      <trkpt lat="48.12035" lon="-4.28254">
        <ele>29.94</ele>
        <time>2011-07-08T14:38:16Z</time>
      </trkpt>
      <trkpt lat="48.12019" lon="-4.2825">
        <ele>25.61</ele>
        <time>2011-07-08T14:38:30Z</time>
      </trkpt>
      <trkpt lat="48.12017" lon="-4.2825">
        <ele>25.13</ele>
        <time>2011-07-08T14:38:32Z</time>
      </trkpt>
      <trkpt lat="48.12014" lon="-4.2825">
        <ele>24.17</ele>
        <time>2011-07-08T14:38:35Z</time>
      </trkpt>
      <trkpt lat="48.12007" lon="-4.28241">
        <ele>22.73</ele>
        <time>2011-07-08T14:38:42Z</time>
      </trkpt>
      <trkpt lat="48.12003" lon="-4.28215">
        <ele>21.77</ele>
        <time>2011-07-08T14:38:57Z</time>
      </trkpt>
      <trkpt lat="48.11995" lon="-4.2819">
        <ele>21.77</ele>
        <time>2011-07-08T14:39:11Z</time>
      </trkpt>
      <trkpt lat="48.11985" lon="-4.28165">
        <ele>23.69</ele>
        <time>2011-07-08T14:39:25Z</time>
      </trkpt>
      <trkpt lat="48.11972" lon="-4.28141">
        <ele>22.25</ele>
        <time>2011-07-08T14:39:40Z</time>
      </trkpt>
      <trkpt lat="48.11974" lon="-4.2812">
        <ele>22.25</ele>
        <time>2011-07-08T14:39:52Z</time>
      </trkpt>
      <trkpt lat="48.11973" lon="-4.28112">
        <ele>23.21</ele>
        <time>2011-07-08T14:39:57Z</time>
      </trkpt>
      <trkpt lat="48.11964" lon="-4.28085">
        <ele>22.25</ele>
        <time>2011-07-08T14:40:12Z</time>
      </trkpt>
      <trkpt lat="48.1195" lon="-4.28077">
        <ele>22.73</ele>
        <time>2011-07-08T14:40:25Z</time>
      </trkpt>
      <trkpt lat="48.11939" lon="-4.28082">
        <ele>20.81</ele>
        <time>2011-07-08T14:40:35Z</time>
      </trkpt>
      <trkpt lat="48.11933" lon="-4.28077">
        <ele>19.84</ele>
        <time>2011-07-08T14:40:40Z</time>
      </trkpt>
      <trkpt lat="48.11922" lon="-4.28049">
        <ele>19.84</ele>
        <time>2011-07-08T14:40:56Z</time>
      </trkpt>
      <trkpt lat="48.11922" lon="-4.28048">
        <ele>19.84</ele>
        <time>2011-07-08T14:40:57Z</time>
      </trkpt>
      <trkpt lat="48.11917" lon="-4.2804">
        <ele>20.32</ele>
        <time>2011-07-08T14:41:02Z</time>
      </trkpt>
      <trkpt lat="48.11893" lon="-4.2803">
        <ele>18.88</ele>
        <time>2011-07-08T14:41:20Z</time>
      </trkpt>
      <trkpt lat="48.11873" lon="-4.28029">
        <ele>17.92</ele>
        <time>2011-07-08T14:41:35Z</time>
      </trkpt>
      <trkpt lat="48.11857" lon="-4.28035">
        <ele>16</ele>
        <time>2011-07-08T14:41:48Z</time>
      </trkpt>
      <trkpt lat="48.11851" lon="-4.28038">
        <ele>15.52</ele>
        <time>2011-07-08T14:41:53Z</time>
      </trkpt>
      <trkpt lat="48.11844" lon="-4.28043">
        <ele>14.56</ele>
        <time>2011-07-08T14:42:00Z</time>
      </trkpt>
      <trkpt lat="48.1183" lon="-4.2805">
        <ele>10.71</ele>
        <time>2011-07-08T14:42:13Z</time>
      </trkpt>
      <trkpt lat="48.11818" lon="-4.28062">
        <ele>13.12</ele>
        <time>2011-07-08T14:42:25Z</time>
      </trkpt>
      <trkpt lat="48.11807" lon="-4.28073">
        <ele>18.4</ele>
        <time>2011-07-08T14:42:37Z</time>
      </trkpt>
      <trkpt lat="48.11794" lon="-4.28088">
        <ele>20.32</ele>
        <time>2011-07-08T14:42:50Z</time>
      </trkpt>
      <trkpt lat="48.11773" lon="-4.28096">
        <ele>17.44</ele>
        <time>2011-07-08T14:43:06Z</time>
      </trkpt>
      <trkpt lat="48.11769" lon="-4.28095">
        <ele>16.48</ele>
        <time>2011-07-08T14:43:16Z</time>
      </trkpt>
      <trkpt lat="48.11766" lon="-4.28089">
        <ele>15.52</ele>
        <time>2011-07-08T14:43:20Z</time>
      </trkpt>
      <trkpt lat="48.11762" lon="-4.28077">
        <ele>13.12</ele>
        <time>2011-07-08T14:43:28Z</time>
      </trkpt>
      <trkpt lat="48.11752" lon="-4.28075">
        <ele>12.15</ele>
        <time>2011-07-08T14:43:35Z</time>
      </trkpt>
      <trkpt lat="48.11729" lon="-4.2807">
        <ele>13.6</ele>
        <time>2011-07-08T14:43:52Z</time>
      </trkpt>
      <trkpt lat="48.11709" lon="-4.28066">
        <ele>16</ele>
        <time>2011-07-08T14:44:06Z</time>
      </trkpt>
      <trkpt lat="48.11702" lon="-4.28066">
        <ele>16.48</ele>
        <time>2011-07-08T14:44:11Z</time>
      </trkpt>
      <trkpt lat="48.11681" lon="-4.28071">
        <ele>17.44</ele>
        <time>2011-07-08T14:44:27Z</time>
      </trkpt>
      <trkpt lat="48.11671" lon="-4.28076">
        <ele>17.44</ele>
        <time>2011-07-08T14:44:36Z</time>
      </trkpt>
      <trkpt lat="48.11664" lon="-4.28072">
        <ele>16.96</ele>
        <time>2011-07-08T14:44:42Z</time>
      </trkpt>
      <trkpt lat="48.11647" lon="-4.2806">
        <ele>17.44</ele>
        <time>2011-07-08T14:44:56Z</time>
      </trkpt>
      <trkpt lat="48.11643" lon="-4.28056">
        <ele>17.92</ele>
        <time>2011-07-08T14:45:00Z</time>
      </trkpt>
      <trkpt lat="48.11637" lon="-4.28051">
        <ele>17.44</ele>
        <time>2011-07-08T14:45:06Z</time>
      </trkpt>
      <trkpt lat="48.11615" lon="-4.28063">
        <ele>15.04</ele>
        <time>2011-07-08T14:45:25Z</time>
      </trkpt>
      <trkpt lat="48.11601" lon="-4.28083">
        <ele>11.67</ele>
        <time>2011-07-08T14:45:41Z</time>
      </trkpt>
      <trkpt lat="48.11596" lon="-4.2809">
        <ele>11.67</ele>
        <time>2011-07-08T14:45:55Z</time>
      </trkpt>
      <trkpt lat="48.11592" lon="-4.28095">
        <ele>12.63</ele>
        <time>2011-07-08T14:46:09Z</time>
      </trkpt>
      <trkpt lat="48.11578" lon="-4.28108">
        <ele>12.15</ele>
        <time>2011-07-08T14:46:20Z</time>
      </trkpt>
      <trkpt lat="48.1156" lon="-4.28129">
        <ele>9.75</ele>
        <time>2011-07-08T14:46:36Z</time>
      </trkpt>
      <trkpt lat="48.11543" lon="-4.28144">
        <ele>9.27</ele>
        <time>2011-07-08T14:46:50Z</time>
      </trkpt>
      <trkpt lat="48.11527" lon="-4.28164">
        <ele>7.35</ele>
        <time>2011-07-08T14:47:06Z</time>
      </trkpt>
      <trkpt lat="48.11512" lon="-4.2818">
        <ele>5.91</ele>
        <time>2011-07-08T14:47:20Z</time>
      </trkpt>
      <trkpt lat="48.11497" lon="-4.28192">
        <ele>5.91</ele>
        <time>2011-07-08T14:47:33Z</time>
      </trkpt>
      <trkpt lat="48.1148" lon="-4.28201">
        <ele>4.94</ele>
        <time>2011-07-08T14:47:47Z</time>
      </trkpt>
      <trkpt lat="48.1146" lon="-4.28211">
        <ele>5.42</ele>
        <time>2011-07-08T14:48:02Z</time>
      </trkpt>
      <trkpt lat="48.11443" lon="-4.28219">
        <ele>5.42</ele>
        <time>2011-07-08T14:48:16Z</time>
      </trkpt>
      <trkpt lat="48.11421" lon="-4.28231">
        <ele>2.06</ele>
        <time>2011-07-08T14:48:34Z</time>
      </trkpt>
      <trkpt lat="48.11403" lon="-4.28239">
        <ele>0.62</ele>
        <time>2011-07-08T14:48:48Z</time>
      </trkpt>
      <trkpt lat="48.11384" lon="-4.28247">
        <ele>0.62</ele>
        <time>2011-07-08T14:49:03Z</time>
      </trkpt>
      <trkpt lat="48.11364" lon="-4.28255">
        <ele>0.62</ele>
        <time>2011-07-08T14:49:19Z</time>
      </trkpt>
      <trkpt lat="48.11346" lon="-4.28263">
        <ele>0.14</ele>
        <time>2011-07-08T14:49:33Z</time>
      </trkpt>
      <trkpt lat="48.11326" lon="-4.28274">
        <ele>1.58</ele>
        <time>2011-07-08T14:49:48Z</time>
      </trkpt>
      <trkpt lat="48.11308" lon="-4.28284">
        <ele>-0.34</ele>
        <time>2011-07-08T14:50:03Z</time>
      </trkpt>
      <trkpt lat="48.11288" lon="-4.28296">
        <ele>0.62</ele>
        <time>2011-07-08T14:50:19Z</time>
      </trkpt>
      <trkpt lat="48.1127" lon="-4.28305">
        <ele>2.06</ele>
        <time>2011-07-08T14:50:33Z</time>
      </trkpt>
      <trkpt lat="48.11248" lon="-4.28314">
        <ele>3.02</ele>
        <time>2011-07-08T14:50:50Z</time>
      </trkpt>
      <trkpt lat="48.11228" lon="-4.28324">
        <ele>3.5</ele>
        <time>2011-07-08T14:51:05Z</time>
      </trkpt>
      <trkpt lat="48.11208" lon="-4.28334">
        <ele>3.5</ele>
        <time>2011-07-08T14:51:21Z</time>
      </trkpt>
      <trkpt lat="48.11182" lon="-4.28344">
        <ele>3.98</ele>
        <time>2011-07-08T14:51:40Z</time>
      </trkpt>
      <trkpt lat="48.11176" lon="-4.28345">
        <ele>4.46</ele>
        <time>2011-07-08T14:51:44Z</time>
      </trkpt>
      <trkpt lat="48.1117" lon="-4.28347">
        <ele>6.39</ele>
        <time>2011-07-08T14:51:52Z</time>
      </trkpt>
      <trkpt lat="48.1117" lon="-4.28347">
        <ele>6.39</ele>
        <time>2011-07-08T14:52:26Z</time>
      </trkpt>
      <trkpt lat="48.11171" lon="-4.28347">
        <ele>5.91</ele>
        <time>2011-07-08T14:52:55Z</time>
      </trkpt>
      <trkpt lat="48.11171" lon="-4.28348">
        <ele>5.91</ele>
        <time>2011-07-08T14:52:57Z</time>
      </trkpt>
      <trkpt lat="48.1117" lon="-4.28347">
        <ele>4.94</ele>
        <time>2011-07-08T14:53:08Z</time>
      </trkpt>
      <trkpt lat="48.1117" lon="-4.28347">
        <ele>4.94</ele>
        <time>2011-07-08T14:53:15Z</time>
      </trkpt>
      <trkpt lat="48.1117" lon="-4.28348">
        <ele>5.42</ele>
        <time>2011-07-08T14:53:24Z</time>
      </trkpt>
      <trkpt lat="48.11162" lon="-4.28353">
        <ele>6.39</ele>
        <time>2011-07-08T14:53:31Z</time>
      </trkpt>
      <trkpt lat="48.11149" lon="-4.2836">
        <ele>4.94</ele>
        <time>2011-07-08T14:53:42Z</time>
      </trkpt>
      <trkpt lat="48.11136" lon="-4.28369">
        <ele>4.46</ele>
        <time>2011-07-08T14:53:53Z</time>
      </trkpt>
      <trkpt lat="48.11133" lon="-4.28371">
        <ele>4.46</ele>
        <time>2011-07-08T14:54:05Z</time>
      </trkpt>
      <trkpt lat="48.11129" lon="-4.28372">
        <ele>3.98</ele>
        <time>2011-07-08T14:54:15Z</time>
      </trkpt>
      <trkpt lat="48.11115" lon="-4.28382">
        <ele>3.98</ele>
        <time>2011-07-08T14:54:27Z</time>
      </trkpt>
      <trkpt lat="48.11098" lon="-4.28391">
        <ele>4.46</ele>
        <time>2011-07-08T14:54:41Z</time>
      </trkpt>
      <trkpt lat="48.11088" lon="-4.28398">
        <ele>4.46</ele>
        <time>2011-07-08T14:54:54Z</time>
      </trkpt>
      <trkpt lat="48.11089" lon="-4.28397">
        <ele>4.94</ele>
        <time>2011-07-08T14:55:07Z</time>
      </trkpt>
      <trkpt lat="48.11089" lon="-4.28397">
        <ele>4.94</ele>
        <time>2011-07-08T14:55:20Z</time>
      </trkpt>
      <trkpt lat="48.11089" lon="-4.28397">
        <ele>4.94</ele>
        <time>2011-07-08T14:55:37Z</time>
      </trkpt>
      <trkpt lat="48.11088" lon="-4.28397">
        <ele>4.94</ele>
        <time>2011-07-08T14:55:59Z</time>
      </trkpt>
      <trkpt lat="48.11089" lon="-4.28397">
        <ele>4.94</ele>
        <time>2011-07-08T14:56:13Z</time>
      </trkpt>
      <trkpt lat="48.11088" lon="-4.28397">
        <ele>4.94</ele>
        <time>2011-07-08T14:56:31Z</time>
      </trkpt>
      <trkpt lat="48.11088" lon="-4.28397">
        <ele>4.94</ele>
        <time>2011-07-08T14:56:48Z</time>
      </trkpt>
      <trkpt lat="48.11087" lon="-4.28398">
        <ele>5.42</ele>
        <time>2011-07-08T14:56:59Z</time>
      </trkpt>
      <trkpt lat="48.11079" lon="-4.28404">
        <ele>4.46</ele>
        <time>2011-07-08T14:57:07Z</time>
      </trkpt>
      <trkpt lat="48.11073" lon="-4.28403">
        <ele>3.98</ele>
        <time>2011-07-08T14:57:11Z</time>
      </trkpt>
      <trkpt lat="48.11063" lon="-4.28407">
        <ele>5.42</ele>
        <time>2011-07-08T14:57:18Z</time>
      </trkpt>
      <trkpt lat="48.1104" lon="-4.28419">
        <ele>6.39</ele>
        <time>2011-07-08T14:57:37Z</time>
      </trkpt>
      <trkpt lat="48.11022" lon="-4.28427">
        <ele>4.94</ele>
        <time>2011-07-08T14:57:50Z</time>
      </trkpt>
      <trkpt lat="48.11018" lon="-4.28429">
        <ele>4.46</ele>
        <time>2011-07-08T14:57:53Z</time>
      </trkpt>
      <trkpt lat="48.11007" lon="-4.28435">
        <ele>3.98</ele>
        <time>2011-07-08T14:58:04Z</time>
      </trkpt>
      <trkpt lat="48.10989" lon="-4.28445">
        <ele>3.5</ele>
        <time>2011-07-08T14:58:15Z</time>
      </trkpt>
      <trkpt lat="48.10983" lon="-4.28449">
        <ele>3.5</ele>
        <time>2011-07-08T14:58:23Z</time>
      </trkpt>
      <trkpt lat="48.1098" lon="-4.2845">
        <ele>3.5</ele>
        <time>2011-07-08T14:58:25Z</time>
      </trkpt>
      <trkpt lat="48.10961" lon="-4.2846">
        <ele>3.5</ele>
        <time>2011-07-08T14:58:38Z</time>
      </trkpt>
      <trkpt lat="48.10944" lon="-4.28469">
        <ele>4.46</ele>
        <time>2011-07-08T14:58:51Z</time>
      </trkpt>
      <trkpt lat="48.10922" lon="-4.28479">
        <ele>4.94</ele>
        <time>2011-07-08T14:59:08Z</time>
      </trkpt>
      <trkpt lat="48.10909" lon="-4.28488">
        <ele>5.42</ele>
        <time>2011-07-08T14:59:19Z</time>
      </trkpt>
      <trkpt lat="48.10893" lon="-4.28496">
        <ele>5.91</ele>
        <time>2011-07-08T14:59:32Z</time>
      </trkpt>
      <trkpt lat="48.10872" lon="-4.28495">
        <ele>5.42</ele>
        <time>2011-07-08T14:59:48Z</time>
      </trkpt>
      <trkpt lat="48.10852" lon="-4.285">
        <ele>5.42</ele>
        <time>2011-07-08T15:00:02Z</time>
      </trkpt>
      <trkpt lat="48.10826" lon="-4.28504">
        <ele>5.91</ele>
        <time>2011-07-08T15:00:22Z</time>
      </trkpt>
      <trkpt lat="48.10806" lon="-4.28508">
        <ele>5.42</ele>
        <time>2011-07-08T15:00:38Z</time>
      </trkpt>
      <trkpt lat="48.10785" lon="-4.28519">
        <ele>5.42</ele>
        <time>2011-07-08T15:00:55Z</time>
      </trkpt>
      <trkpt lat="48.10772" lon="-4.28524">
        <ele>5.91</ele>
        <time>2011-07-08T15:01:08Z</time>
      </trkpt>
      <trkpt lat="48.10748" lon="-4.28532">
        <ele>5.91</ele>
        <time>2011-07-08T15:01:27Z</time>
      </trkpt>
      <trkpt lat="48.10724" lon="-4.28538">
        <ele>4.94</ele>
        <time>2011-07-08T15:01:46Z</time>
      </trkpt>
      <trkpt lat="48.10697" lon="-4.28543">
        <ele>5.91</ele>
        <time>2011-07-08T15:02:07Z</time>
      </trkpt>
      <trkpt lat="48.10684" lon="-4.28549">
        <ele>4.94</ele>
        <time>2011-07-08T15:02:17Z</time>
      </trkpt>
      <trkpt lat="48.10669" lon="-4.28555">
        <ele>3.98</ele>
        <time>2011-07-08T15:02:28Z</time>
      </trkpt>
      <trkpt lat="48.10652" lon="-4.28561">
        <ele>4.46</ele>
        <time>2011-07-08T15:02:40Z</time>
      </trkpt>
      <trkpt lat="48.10636" lon="-4.28564">
        <ele>3.5</ele>
        <time>2011-07-08T15:02:53Z</time>
      </trkpt>
      <trkpt lat="48.1062" lon="-4.28565">
        <ele>3.5</ele>
        <time>2011-07-08T15:03:04Z</time>
      </trkpt>
      <trkpt lat="48.106" lon="-4.28569">
        <ele>3.02</ele>
        <time>2011-07-08T15:03:18Z</time>
      </trkpt>
      <trkpt lat="48.10581" lon="-4.28572">
        <ele>4.46</ele>
        <time>2011-07-08T15:03:32Z</time>
      </trkpt>
      <trkpt lat="48.10577" lon="-4.28573">
        <ele>4.46</ele>
        <time>2011-07-08T15:03:37Z</time>
      </trkpt>
      <trkpt lat="48.10562" lon="-4.28577">
        <ele>4.46</ele>
        <time>2011-07-08T15:03:48Z</time>
      </trkpt>
      <trkpt lat="48.10549" lon="-4.28579">
        <ele>4.94</ele>
        <time>2011-07-08T15:03:58Z</time>
      </trkpt>
      <trkpt lat="48.10536" lon="-4.28582">
        <ele>4.46</ele>
        <time>2011-07-08T15:04:08Z</time>
      </trkpt>
      <trkpt lat="48.10521" lon="-4.28582">
        <ele>3.98</ele>
        <time>2011-07-08T15:04:18Z</time>
      </trkpt>
      <trkpt lat="48.10507" lon="-4.28584">
        <ele>4.94</ele>
        <time>2011-07-08T15:04:29Z</time>
      </trkpt>
      <trkpt lat="48.10493" lon="-4.28576">
        <ele>6.39</ele>
        <time>2011-07-08T15:04:41Z</time>
      </trkpt>
      <trkpt lat="48.10485" lon="-4.28573">
        <ele>7.83</ele>
        <time>2011-07-08T15:04:50Z</time>
      </trkpt>
      <trkpt lat="48.10476" lon="-4.28573">
        <ele>9.27</ele>
        <time>2011-07-08T15:04:58Z</time>
      </trkpt>
      <trkpt lat="48.10472" lon="-4.28576">
        <ele>9.27</ele>
        <time>2011-07-08T15:05:02Z</time>
      </trkpt>
      <trkpt lat="48.10459" lon="-4.28574">
        <ele>9.27</ele>
        <time>2011-07-08T15:05:14Z</time>
      </trkpt>
      <trkpt lat="48.10457" lon="-4.28573">
        <ele>8.79</ele>
        <time>2011-07-08T15:05:17Z</time>
      </trkpt>
      <trkpt lat="48.10447" lon="-4.2858">
        <ele>8.79</ele>
        <time>2011-07-08T15:05:26Z</time>
      </trkpt>
      <trkpt lat="48.10436" lon="-4.28583">
        <ele>9.27</ele>
        <time>2011-07-08T15:05:37Z</time>
      </trkpt>
      <trkpt lat="48.10433" lon="-4.28583">
        <ele>9.27</ele>
        <time>2011-07-08T15:05:39Z</time>
      </trkpt>
      <trkpt lat="48.1042" lon="-4.28587">
        <ele>9.27</ele>
        <time>2011-07-08T15:05:49Z</time>
      </trkpt>
      <trkpt lat="48.1041" lon="-4.28589">
        <ele>9.75</ele>
        <time>2011-07-08T15:05:58Z</time>
      </trkpt>
      <trkpt lat="48.10397" lon="-4.28596">
        <ele>9.75</ele>
        <time>2011-07-08T15:06:08Z</time>
      </trkpt>
      <trkpt lat="48.10389" lon="-4.28597">
        <ele>8.79</ele>
        <time>2011-07-08T15:06:17Z</time>
      </trkpt>
      <trkpt lat="48.10378" lon="-4.28602">
        <ele>8.31</ele>
        <time>2011-07-08T15:06:25Z</time>
      </trkpt>
      <trkpt lat="48.10373" lon="-4.28612">
        <ele>7.35</ele>
        <time>2011-07-08T15:06:34Z</time>
      </trkpt>
      <trkpt lat="48.10362" lon="-4.28623">
        <ele>8.31</ele>
        <time>2011-07-08T15:06:44Z</time>
      </trkpt>
      <trkpt lat="48.10354" lon="-4.28628">
        <ele>9.75</ele>
        <time>2011-07-08T15:06:52Z</time>
      </trkpt>
      <trkpt lat="48.10347" lon="-4.28632">
        <ele>10.23</ele>
        <time>2011-07-08T15:06:59Z</time>
      </trkpt>
      <trkpt lat="48.10335" lon="-4.28638">
        <ele>11.19</ele>
        <time>2011-07-08T15:07:11Z</time>
      </trkpt>
      <trkpt lat="48.10333" lon="-4.28636">
        <ele>11.67</ele>
        <time>2011-07-08T15:07:14Z</time>
      </trkpt>
      <trkpt lat="48.10322" lon="-4.28625">
        <ele>12.63</ele>
        <time>2011-07-08T15:07:26Z</time>
      </trkpt>
      <trkpt lat="48.10319" lon="-4.28625">
        <ele>13.6</ele>
        <time>2011-07-08T15:07:32Z</time>
      </trkpt>
      <trkpt lat="48.10316" lon="-4.28626">
        <ele>16</ele>
        <time>2011-07-08T15:07:41Z</time>
      </trkpt>
      <trkpt lat="48.10315" lon="-4.28629">
        <ele>17.92</ele>
        <time>2011-07-08T15:07:45Z</time>
      </trkpt>
      <trkpt lat="48.10308" lon="-4.28644">
        <ele>19.84</ele>
        <time>2011-07-08T15:07:55Z</time>
      </trkpt>
      <trkpt lat="48.10302" lon="-4.28656">
        <ele>19.84</ele>
        <time>2011-07-08T15:08:04Z</time>
      </trkpt>
      <trkpt lat="48.10296" lon="-4.28669">
        <ele>20.32</ele>
        <time>2011-07-08T15:08:13Z</time>
      </trkpt>
      <trkpt lat="48.10288" lon="-4.28676">
        <ele>21.29</ele>
        <time>2011-07-08T15:08:23Z</time>
      </trkpt>
      <trkpt lat="48.10285" lon="-4.28676">
        <ele>21.77</ele>
        <time>2011-07-08T15:08:27Z</time>
      </trkpt>
      <trkpt lat="48.10279" lon="-4.28679">
        <ele>23.21</ele>
        <time>2011-07-08T15:08:39Z</time>
      </trkpt>
      <trkpt lat="48.10276" lon="-4.28682">
        <ele>25.13</ele>
        <time>2011-07-08T15:08:48Z</time>
      </trkpt>
      <trkpt lat="48.10269" lon="-4.2869">
        <ele>27.53</ele>
        <time>2011-07-08T15:08:58Z</time>
      </trkpt>
      <trkpt lat="48.1026" lon="-4.28698">
        <ele>29.46</ele>
        <time>2011-07-08T15:09:10Z</time>
      </trkpt>
      <trkpt lat="48.10257" lon="-4.28709">
        <ele>31.86</ele>
        <time>2011-07-08T15:09:18Z</time>
      </trkpt>
      <trkpt lat="48.10256" lon="-4.28712">
        <ele>32.34</ele>
        <time>2011-07-08T15:09:20Z</time>
      </trkpt>
      <trkpt lat="48.10251" lon="-4.28722">
        <ele>33.78</ele>
        <time>2011-07-08T15:09:27Z</time>
      </trkpt>
      <trkpt lat="48.10245" lon="-4.28733">
        <ele>33.3</ele>
        <time>2011-07-08T15:09:35Z</time>
      </trkpt>
      <trkpt lat="48.10239" lon="-4.28745">
        <ele>33.78</ele>
        <time>2011-07-08T15:09:43Z</time>
      </trkpt>
      <trkpt lat="48.10234" lon="-4.28756">
        <ele>34.26</ele>
        <time>2011-07-08T15:09:51Z</time>
      </trkpt>
      <trkpt lat="48.10222" lon="-4.2878">
        <ele>32.34</ele>
        <time>2011-07-08T15:10:07Z</time>
      </trkpt>
      <trkpt lat="48.10214" lon="-4.28792">
        <ele>31.86</ele>
        <time>2011-07-08T15:10:16Z</time>
      </trkpt>
      <trkpt lat="48.10202" lon="-4.28808">
        <ele>31.38</ele>
        <time>2011-07-08T15:10:29Z</time>
      </trkpt>
      <trkpt lat="48.10199" lon="-4.28812">
        <ele>31.38</ele>
        <time>2011-07-08T15:10:32Z</time>
      </trkpt>
      <trkpt lat="48.10187" lon="-4.28825">
        <ele>30.9</ele>
        <time>2011-07-08T15:10:43Z</time>
      </trkpt>
      <trkpt lat="48.10171" lon="-4.28846">
        <ele>30.42</ele>
        <time>2011-07-08T15:11:00Z</time>
      </trkpt>
      <trkpt lat="48.10158" lon="-4.28867">
        <ele>29.46</ele>
        <time>2011-07-08T15:11:16Z</time>
      </trkpt>
      <trkpt lat="48.10141" lon="-4.28885">
        <ele>29.46</ele>
        <time>2011-07-08T15:11:32Z</time>
      </trkpt>
      <trkpt lat="48.10134" lon="-4.28889">
        <ele>29.94</ele>
        <time>2011-07-08T15:11:38Z</time>
      </trkpt>
      <trkpt lat="48.10132" lon="-4.28889">
        <ele>29.46</ele>
        <time>2011-07-08T15:11:40Z</time>
      </trkpt>
      <trkpt lat="48.10113" lon="-4.28892">
        <ele>30.42</ele>
        <time>2011-07-08T15:11:56Z</time>
      </trkpt>
      <trkpt lat="48.101" lon="-4.28893">
        <ele>32.34</ele>
        <time>2011-07-08T15:12:04Z</time>
      </trkpt>
      <trkpt lat="48.10098" lon="-4.28893">
        <ele>32.34</ele>
        <time>2011-07-08T15:12:05Z</time>
      </trkpt>
      <trkpt lat="48.10096" lon="-4.28892">
        <ele>32.34</ele>
        <time>2011-07-08T15:12:07Z</time>
      </trkpt>
      <trkpt lat="48.10083" lon="-4.28893">
        <ele>32.34</ele>
        <time>2011-07-08T15:12:18Z</time>
      </trkpt>
      <trkpt lat="48.10071" lon="-4.28898">
        <ele>33.78</ele>
        <time>2011-07-08T15:12:30Z</time>
      </trkpt>
      <trkpt lat="48.10059" lon="-4.28904">
        <ele>34.26</ele>
        <time>2011-07-08T15:12:40Z</time>
      </trkpt>
      <trkpt lat="48.10057" lon="-4.28903">
        <ele>34.74</ele>
        <time>2011-07-08T15:12:43Z</time>
      </trkpt>
      <trkpt lat="48.10046" lon="-4.28899">
        <ele>33.78</ele>
        <time>2011-07-08T15:12:53Z</time>
      </trkpt>
      <trkpt lat="48.10037" lon="-4.2889">
        <ele>34.74</ele>
        <time>2011-07-08T15:13:04Z</time>
      </trkpt>
      <trkpt lat="48.10035" lon="-4.28887">
        <ele>35.23</ele>
        <time>2011-07-08T15:13:08Z</time>
      </trkpt>
      <trkpt lat="48.10021" lon="-4.28891">
        <ele>36.67</ele>
        <time>2011-07-08T15:13:18Z</time>
      </trkpt>
      <trkpt lat="48.10004" lon="-4.28903">
        <ele>36.19</ele>
        <time>2011-07-08T15:13:33Z</time>
      </trkpt>
      <trkpt lat="48.09994" lon="-4.2892">
        <ele>35.23</ele>
        <time>2011-07-08T15:13:45Z</time>
      </trkpt>
      <trkpt lat="48.0999" lon="-4.28928">
        <ele>36.19</ele>
        <time>2011-07-08T15:13:50Z</time>
      </trkpt>
      <trkpt lat="48.09986" lon="-4.28942">
        <ele>36.67</ele>
        <time>2011-07-08T15:13:58Z</time>
      </trkpt>
      <trkpt lat="48.09983" lon="-4.28951">
        <ele>36.19</ele>
        <time>2011-07-08T15:14:03Z</time>
      </trkpt>
      <trkpt lat="48.09981" lon="-4.2896">
        <ele>36.19</ele>
        <time>2011-07-08T15:14:09Z</time>
      </trkpt>
      <trkpt lat="48.09981" lon="-4.28976">
        <ele>36.67</ele>
        <time>2011-07-08T15:14:18Z</time>
      </trkpt>
      <trkpt lat="48.0998" lon="-4.28982">
        <ele>36.67</ele>
        <time>2011-07-08T15:14:22Z</time>
      </trkpt>
      <trkpt lat="48.0998" lon="-4.28985">
        <ele>36.67</ele>
        <time>2011-07-08T15:14:24Z</time>
      </trkpt>
      <trkpt lat="48.09978" lon="-4.28995">
        <ele>36.67</ele>
        <time>2011-07-08T15:14:31Z</time>
      </trkpt>
      <trkpt lat="48.09975" lon="-4.29011">
        <ele>37.15</ele>
        <time>2011-07-08T15:14:40Z</time>
      </trkpt>
      <trkpt lat="48.09972" lon="-4.29026">
        <ele>39.55</ele>
        <time>2011-07-08T15:14:49Z</time>
      </trkpt>
      <trkpt lat="48.09971" lon="-4.29031">
        <ele>40.03</ele>
        <time>2011-07-08T15:14:53Z</time>
      </trkpt>
      <trkpt lat="48.09969" lon="-4.29036">
        <ele>40.51</ele>
        <time>2011-07-08T15:14:57Z</time>
      </trkpt>
      <trkpt lat="48.09961" lon="-4.29051">
        <ele>41.95</ele>
        <time>2011-07-08T15:15:07Z</time>
      </trkpt>
      <trkpt lat="48.09961" lon="-4.29052">
        <ele>42.44</ele>
        <time>2011-07-08T15:15:08Z</time>
      </trkpt>
      <trkpt lat="48.09953" lon="-4.29066">
        <ele>43.88</ele>
        <time>2011-07-08T15:15:19Z</time>
      </trkpt>
      <trkpt lat="48.09946" lon="-4.29075">
        <ele>44.84</ele>
        <time>2011-07-08T15:15:28Z</time>
      </trkpt>
      <trkpt lat="48.09945" lon="-4.29076">
        <ele>44.84</ele>
        <time>2011-07-08T15:15:29Z</time>
      </trkpt>
      <trkpt lat="48.09938" lon="-4.29086">
        <ele>46.28</ele>
        <time>2011-07-08T15:15:38Z</time>
      </trkpt>
      <trkpt lat="48.09927" lon="-4.29095">
        <ele>49.65</ele>
        <time>2011-07-08T15:15:49Z</time>
      </trkpt>
      <trkpt lat="48.09919" lon="-4.29105">
        <ele>50.13</ele>
        <time>2011-07-08T15:15:59Z</time>
      </trkpt>
      <trkpt lat="48.09909" lon="-4.29114">
        <ele>52.53</ele>
        <time>2011-07-08T15:16:08Z</time>
      </trkpt>
      <trkpt lat="48.09901" lon="-4.29119">
        <ele>53.97</ele>
        <time>2011-07-08T15:16:16Z</time>
      </trkpt>
      <trkpt lat="48.09891" lon="-4.29128">
        <ele>54.93</ele>
        <time>2011-07-08T15:16:25Z</time>
      </trkpt>
      <trkpt lat="48.09881" lon="-4.29134">
        <ele>55.41</ele>
        <time>2011-07-08T15:16:34Z</time>
      </trkpt>
      <trkpt lat="48.0987" lon="-4.29142">
        <ele>56.37</ele>
        <time>2011-07-08T15:16:44Z</time>
      </trkpt>
      <trkpt lat="48.0986" lon="-4.29151">
        <ele>57.34</ele>
        <time>2011-07-08T15:16:53Z</time>
      </trkpt>
      <trkpt lat="48.0985" lon="-4.29159">
        <ele>57.82</ele>
        <time>2011-07-08T15:17:01Z</time>
      </trkpt>
      <trkpt lat="48.09843" lon="-4.29165">
        <ele>57.34</ele>
        <time>2011-07-08T15:17:09Z</time>
      </trkpt>
      <trkpt lat="48.09832" lon="-4.29172">
        <ele>58.3</ele>
        <time>2011-07-08T15:17:18Z</time>
      </trkpt>
      <trkpt lat="48.09829" lon="-4.29175">
        <ele>58.78</ele>
        <time>2011-07-08T15:17:21Z</time>
      </trkpt>
      <trkpt lat="48.09824" lon="-4.29178">
        <ele>59.26</ele>
        <time>2011-07-08T15:17:25Z</time>
      </trkpt>
      <trkpt lat="48.09819" lon="-4.29181">
        <ele>59.74</ele>
        <time>2011-07-08T15:17:29Z</time>
      </trkpt>
      <trkpt lat="48.09809" lon="-4.29188">
        <ele>59.74</ele>
        <time>2011-07-08T15:17:37Z</time>
      </trkpt>
      <trkpt lat="48.09803" lon="-4.29193">
        <ele>60.22</ele>
        <time>2011-07-08T15:17:42Z</time>
      </trkpt>
      <trkpt lat="48.0979" lon="-4.29205">
        <ele>61.18</ele>
        <time>2011-07-08T15:17:54Z</time>
      </trkpt>
      <trkpt lat="48.09786" lon="-4.29206">
        <ele>60.7</ele>
        <time>2011-07-08T15:17:57Z</time>
      </trkpt>
      <trkpt lat="48.0978" lon="-4.2921">
        <ele>60.7</ele>
        <time>2011-07-08T15:18:01Z</time>
      </trkpt>
      <trkpt lat="48.09763" lon="-4.29223">
        <ele>59.74</ele>
        <time>2011-07-08T15:18:16Z</time>
      </trkpt>
      <trkpt lat="48.09749" lon="-4.29231">
        <ele>59.74</ele>
        <time>2011-07-08T15:18:28Z</time>
      </trkpt>
      <trkpt lat="48.09748" lon="-4.29234">
        <ele>59.74</ele>
        <time>2011-07-08T15:18:31Z</time>
      </trkpt>
      <trkpt lat="48.09733" lon="-4.29244">
        <ele>59.74</ele>
        <time>2011-07-08T15:18:43Z</time>
      </trkpt>
      <trkpt lat="48.09726" lon="-4.29248">
        <ele>59.26</ele>
        <time>2011-07-08T15:18:54Z</time>
      </trkpt>
      <trkpt lat="48.09711" lon="-4.29254">
        <ele>58.3</ele>
        <time>2011-07-08T15:19:00Z</time>
      </trkpt>
      <trkpt lat="48.09702" lon="-4.29259">
        <ele>57.82</ele>
        <time>2011-07-08T15:19:04Z</time>
      </trkpt>
      <trkpt lat="48.09689" lon="-4.29266">
        <ele>54.93</ele>
        <time>2011-07-08T15:19:15Z</time>
      </trkpt>
      <trkpt lat="48.09685" lon="-4.29269">
        <ele>54.93</ele>
        <time>2011-07-08T15:19:17Z</time>
      </trkpt>
      <trkpt lat="48.09672" lon="-4.29277">
        <ele>55.41</ele>
        <time>2011-07-08T15:19:28Z</time>
      </trkpt>
      <trkpt lat="48.0966" lon="-4.29287">
        <ele>54.93</ele>
        <time>2011-07-08T15:19:39Z</time>
      </trkpt>
      <trkpt lat="48.09648" lon="-4.29294">
        <ele>54.45</ele>
        <time>2011-07-08T15:19:49Z</time>
      </trkpt>
      <trkpt lat="48.09642" lon="-4.29298">
        <ele>53.97</ele>
        <time>2011-07-08T15:19:56Z</time>
      </trkpt>
      <trkpt lat="48.09629" lon="-4.29308">
        <ele>53.01</ele>
        <time>2011-07-08T15:20:06Z</time>
      </trkpt>
      <trkpt lat="48.09628" lon="-4.29309">
        <ele>52.53</ele>
        <time>2011-07-08T15:20:07Z</time>
      </trkpt>
      <trkpt lat="48.09615" lon="-4.29321">
        <ele>49.16</ele>
        <time>2011-07-08T15:20:19Z</time>
      </trkpt>
      <trkpt lat="48.09602" lon="-4.29333">
        <ele>47.72</ele>
        <time>2011-07-08T15:20:29Z</time>
      </trkpt>
      <trkpt lat="48.09602" lon="-4.29334">
        <ele>47.72</ele>
        <time>2011-07-08T15:20:30Z</time>
      </trkpt>
      <trkpt lat="48.09595" lon="-4.2934">
        <ele>48.2</ele>
        <time>2011-07-08T15:20:34Z</time>
      </trkpt>
      <trkpt lat="48.09589" lon="-4.29343">
        <ele>48.2</ele>
        <time>2011-07-08T15:20:40Z</time>
      </trkpt>
      <trkpt lat="48.09576" lon="-4.29352">
        <ele>49.65</ele>
        <time>2011-07-08T15:20:50Z</time>
      </trkpt>
      <trkpt lat="48.09573" lon="-4.29356">
        <ele>49.65</ele>
        <time>2011-07-08T15:20:54Z</time>
      </trkpt>
      <trkpt lat="48.09561" lon="-4.29364">
        <ele>49.65</ele>
        <time>2011-07-08T15:21:05Z</time>
      </trkpt>
      <trkpt lat="48.09555" lon="-4.29371">
        <ele>50.13</ele>
        <time>2011-07-08T15:21:09Z</time>
      </trkpt>
      <trkpt lat="48.09539" lon="-4.29374">
        <ele>48.68</ele>
        <time>2011-07-08T15:21:21Z</time>
      </trkpt>
      <trkpt lat="48.09527" lon="-4.29379">
        <ele>46.76</ele>
        <time>2011-07-08T15:21:31Z</time>
      </trkpt>
      <trkpt lat="48.0952" lon="-4.2938">
        <ele>46.76</ele>
        <time>2011-07-08T15:21:38Z</time>
      </trkpt>
      <trkpt lat="48.09515" lon="-4.29383">
        <ele>47.72</ele>
        <time>2011-07-08T15:21:42Z</time>
      </trkpt>
      <trkpt lat="48.09512" lon="-4.29384">
        <ele>47.72</ele>
        <time>2011-07-08T15:21:48Z</time>
      </trkpt>
      <trkpt lat="48.09508" lon="-4.29386">
        <ele>48.2</ele>
        <time>2011-07-08T15:21:52Z</time>
      </trkpt>
      <trkpt lat="48.09502" lon="-4.29388">
        <ele>47.72</ele>
        <time>2011-07-08T15:21:56Z</time>
      </trkpt>
      <trkpt lat="48.09483" lon="-4.29397">
        <ele>48.68</ele>
        <time>2011-07-08T15:22:07Z</time>
      </trkpt>
      <trkpt lat="48.09467" lon="-4.29411">
        <ele>50.13</ele>
        <time>2011-07-08T15:22:20Z</time>
      </trkpt>
      <trkpt lat="48.09465" lon="-4.29413">
        <ele>50.61</ele>
        <time>2011-07-08T15:22:22Z</time>
      </trkpt>
      <trkpt lat="48.09449" lon="-4.29429">
        <ele>51.09</ele>
        <time>2011-07-08T15:22:36Z</time>
      </trkpt>
      <trkpt lat="48.09433" lon="-4.29444">
        <ele>50.13</ele>
        <time>2011-07-08T15:22:50Z</time>
      </trkpt>
      <trkpt lat="48.09428" lon="-4.29447">
        <ele>49.65</ele>
        <time>2011-07-08T15:22:54Z</time>
      </trkpt>
      <trkpt lat="48.09417" lon="-4.29458">
        <ele>49.65</ele>
        <time>2011-07-08T15:23:04Z</time>
      </trkpt>
      <trkpt lat="48.09402" lon="-4.29466">
        <ele>46.76</ele>
        <time>2011-07-08T15:23:16Z</time>
      </trkpt>
      <trkpt lat="48.09388" lon="-4.29475">
        <ele>43.88</ele>
        <time>2011-07-08T15:23:28Z</time>
      </trkpt>
      <trkpt lat="48.09375" lon="-4.29477">
        <ele>42.44</ele>
        <time>2011-07-08T15:23:39Z</time>
      </trkpt>
      <trkpt lat="48.09362" lon="-4.29464">
        <ele>40.99</ele>
        <time>2011-07-08T15:23:52Z</time>
      </trkpt>
      <trkpt lat="48.09359" lon="-4.29449">
        <ele>40.03</ele>
        <time>2011-07-08T15:24:02Z</time>
      </trkpt>
      <trkpt lat="48.09357" lon="-4.29446">
        <ele>40.51</ele>
        <time>2011-07-08T15:24:04Z</time>
      </trkpt>
      <trkpt lat="48.09355" lon="-4.2942">
        <ele>41.95</ele>
        <time>2011-07-08T15:24:16Z</time>
      </trkpt>
      <trkpt lat="48.09352" lon="-4.29396">
        <ele>44.36</ele>
        <time>2011-07-08T15:24:27Z</time>
      </trkpt>
      <trkpt lat="48.09347" lon="-4.29368">
        <ele>44.84</ele>
        <time>2011-07-08T15:24:41Z</time>
      </trkpt>
      <trkpt lat="48.09346" lon="-4.2936">
        <ele>45.32</ele>
        <time>2011-07-08T15:24:45Z</time>
      </trkpt>
      <trkpt lat="48.09346" lon="-4.29352">
        <ele>45.32</ele>
        <time>2011-07-08T15:24:49Z</time>
      </trkpt>
      <trkpt lat="48.09343" lon="-4.29336">
        <ele>45.32</ele>
        <time>2011-07-08T15:24:57Z</time>
      </trkpt>
      <trkpt lat="48.09342" lon="-4.29327">
        <ele>45.32</ele>
        <time>2011-07-08T15:25:02Z</time>
      </trkpt>
      <trkpt lat="48.09338" lon="-4.29301">
        <ele>45.8</ele>
        <time>2011-07-08T15:25:16Z</time>
      </trkpt>
      <trkpt lat="48.09329" lon="-4.29295">
        <ele>44.84</ele>
        <time>2011-07-08T15:25:26Z</time>
      </trkpt>
      <trkpt lat="48.09323" lon="-4.29307">
        <ele>42.92</ele>
        <time>2011-07-08T15:25:34Z</time>
      </trkpt>
      <trkpt lat="48.0932" lon="-4.2931">
        <ele>41.47</ele>
        <time>2011-07-08T15:25:38Z</time>
      </trkpt>
      <trkpt lat="48.09308" lon="-4.29327">
        <ele>36.67</ele>
        <time>2011-07-08T15:25:52Z</time>
      </trkpt>
      <trkpt lat="48.09302" lon="-4.29334">
        <ele>33.3</ele>
        <time>2011-07-08T15:25:59Z</time>
      </trkpt>
      <trkpt lat="48.09293" lon="-4.2935">
        <ele>30.9</ele>
        <time>2011-07-08T15:26:12Z</time>
      </trkpt>
      <trkpt lat="48.09286" lon="-4.29362">
        <ele>30.42</ele>
        <time>2011-07-08T15:26:21Z</time>
      </trkpt>
      <trkpt lat="48.09282" lon="-4.29367">
        <ele>29.46</ele>
        <time>2011-07-08T15:26:25Z</time>
      </trkpt>
      <trkpt lat="48.09274" lon="-4.29381">
        <ele>27.05</ele>
        <time>2011-07-08T15:26:34Z</time>
      </trkpt>
      <trkpt lat="48.09272" lon="-4.29386">
        <ele>26.09</ele>
        <time>2011-07-08T15:26:37Z</time>
      </trkpt>
      <trkpt lat="48.09266" lon="-4.294">
        <ele>22.73</ele>
        <time>2011-07-08T15:26:47Z</time>
      </trkpt>
      <trkpt lat="48.09264" lon="-4.29403">
        <ele>21.77</ele>
        <time>2011-07-08T15:26:50Z</time>
      </trkpt>
      <trkpt lat="48.09255" lon="-4.29424">
        <ele>16.96</ele>
        <time>2011-07-08T15:27:03Z</time>
      </trkpt>
      <trkpt lat="48.0925" lon="-4.29443">
        <ele>14.08</ele>
        <time>2011-07-08T15:27:14Z</time>
      </trkpt>
      <trkpt lat="48.09243" lon="-4.29469">
        <ele>9.27</ele>
        <time>2011-07-08T15:27:29Z</time>
      </trkpt>
      <trkpt lat="48.09241" lon="-4.29485">
        <ele>8.79</ele>
        <time>2011-07-08T15:27:41Z</time>
      </trkpt>
      <trkpt lat="48.0924" lon="-4.29501">
        <ele>9.27</ele>
        <time>2011-07-08T15:27:48Z</time>
      </trkpt>
      <trkpt lat="48.09243" lon="-4.29516">
        <ele>9.27</ele>
        <time>2011-07-08T15:27:56Z</time>
      </trkpt>
      <trkpt lat="48.09239" lon="-4.29541">
        <ele>9.75</ele>
        <time>2011-07-08T15:28:08Z</time>
      </trkpt>
      <trkpt lat="48.09237" lon="-4.29563">
        <ele>9.75</ele>
        <time>2011-07-08T15:28:19Z</time>
      </trkpt>
      <trkpt lat="48.09235" lon="-4.29575">
        <ele>10.71</ele>
        <time>2011-07-08T15:28:25Z</time>
      </trkpt>
      <trkpt lat="48.09234" lon="-4.2958">
        <ele>10.23</ele>
        <time>2011-07-08T15:28:27Z</time>
      </trkpt>
      <trkpt lat="48.09234" lon="-4.29585">
        <ele>10.23</ele>
        <time>2011-07-08T15:28:30Z</time>
      </trkpt>
      <trkpt lat="48.0923" lon="-4.296">
        <ele>10.71</ele>
        <time>2011-07-08T15:28:37Z</time>
      </trkpt>
      <trkpt lat="48.09227" lon="-4.29606">
        <ele>9.75</ele>
        <time>2011-07-08T15:28:40Z</time>
      </trkpt>
      <trkpt lat="48.09227" lon="-4.29609">
        <ele>9.75</ele>
        <time>2011-07-08T15:28:42Z</time>
      </trkpt>
      <trkpt lat="48.09219" lon="-4.29634">
        <ele>10.71</ele>
        <time>2011-07-08T15:28:55Z</time>
      </trkpt>
      <trkpt lat="48.09216" lon="-4.29642">
        <ele>10.23</ele>
        <time>2011-07-08T15:29:01Z</time>
      </trkpt>
      <trkpt lat="48.09208" lon="-4.29639">
        <ele>10.23</ele>
        <time>2011-07-08T15:29:07Z</time>
      </trkpt>
      <trkpt lat="48.09195" lon="-4.29666">
        <ele>8.31</ele>
        <time>2011-07-08T15:29:23Z</time>
      </trkpt>
      <trkpt lat="48.0919" lon="-4.29675">
        <ele>7.83</ele>
        <time>2011-07-08T15:29:29Z</time>
      </trkpt>
      <trkpt lat="48.09187" lon="-4.29678">
        <ele>7.35</ele>
        <time>2011-07-08T15:29:32Z</time>
      </trkpt>
      <trkpt lat="48.09173" lon="-4.29696">
        <ele>3.98</ele>
        <time>2011-07-08T15:29:46Z</time>
      </trkpt>
      <trkpt lat="48.09166" lon="-4.29705">
        <ele>1.58</ele>
        <time>2011-07-08T15:29:54Z</time>
      </trkpt>
      <trkpt lat="48.0916" lon="-4.29711">
        <ele>0.62</ele>
        <time>2011-07-08T15:29:59Z</time>
      </trkpt>
      <trkpt lat="48.09148" lon="-4.29724">
        <ele>-4.67</ele>
        <time>2011-07-08T15:30:12Z</time>
      </trkpt>
      <trkpt lat="48.09145" lon="-4.29728">
        <ele>-3.71</ele>
        <time>2011-07-08T15:30:15Z</time>
      </trkpt>
      <trkpt lat="48.09129" lon="-4.29745">
        <ele>-3.71</ele>
        <time>2011-07-08T15:30:30Z</time>
      </trkpt>
      <trkpt lat="48.09124" lon="-4.29752">
        <ele>-3.71</ele>
        <time>2011-07-08T15:30:36Z</time>
      </trkpt>
      <trkpt lat="48.09108" lon="-4.29771">
        <ele>-1.79</ele>
        <time>2011-07-08T15:30:51Z</time>
      </trkpt>
      <trkpt lat="48.091" lon="-4.29778">
        <ele>0.62</ele>
        <time>2011-07-08T15:30:58Z</time>
      </trkpt>
      <trkpt lat="48.09088" lon="-4.29791">
        <ele>0.62</ele>
        <time>2011-07-08T15:31:10Z</time>
      </trkpt>
      <trkpt lat="48.09074" lon="-4.29806">
        <ele>0.14</ele>
        <time>2011-07-08T15:31:25Z</time>
      </trkpt>
      <trkpt lat="48.09061" lon="-4.2982">
        <ele>1.58</ele>
        <time>2011-07-08T15:31:38Z</time>
      </trkpt>
      <trkpt lat="48.09059" lon="-4.29824">
        <ele>1.58</ele>
        <time>2011-07-08T15:31:41Z</time>
      </trkpt>
      <trkpt lat="48.09048" lon="-4.29838">
        <ele>3.5</ele>
        <time>2011-07-08T15:31:51Z</time>
      </trkpt>
      <trkpt lat="48.09045" lon="-4.29844">
        <ele>3.98</ele>
        <time>2011-07-08T15:31:55Z</time>
      </trkpt>
      <trkpt lat="48.09043" lon="-4.2985">
        <ele>3.98</ele>
        <time>2011-07-08T15:31:59Z</time>
      </trkpt>
      <trkpt lat="48.09041" lon="-4.29855">
        <ele>4.46</ele>
        <time>2011-07-08T15:32:02Z</time>
      </trkpt>
      <trkpt lat="48.0904" lon="-4.29858">
        <ele>4.46</ele>
        <time>2011-07-08T15:32:04Z</time>
      </trkpt>
      <trkpt lat="48.09034" lon="-4.29872">
        <ele>5.91</ele>
        <time>2011-07-08T15:32:13Z</time>
      </trkpt>
      <trkpt lat="48.09031" lon="-4.29888">
        <ele>8.31</ele>
        <time>2011-07-08T15:32:21Z</time>
      </trkpt>
      <trkpt lat="48.09026" lon="-4.29908">
        <ele>11.19</ele>
        <time>2011-07-08T15:32:32Z</time>
      </trkpt>
      <trkpt lat="48.09019" lon="-4.29914">
        <ele>14.08</ele>
        <time>2011-07-08T15:32:38Z</time>
      </trkpt>
      <trkpt lat="48.09004" lon="-4.29898">
        <ele>17.44</ele>
        <time>2011-07-08T15:32:54Z</time>
      </trkpt>
      <trkpt lat="48.09001" lon="-4.29893">
        <ele>18.88</ele>
        <time>2011-07-08T15:32:58Z</time>
      </trkpt>
      <trkpt lat="48.08996" lon="-4.29885">
        <ele>19.36</ele>
        <time>2011-07-08T15:33:04Z</time>
      </trkpt>
      <trkpt lat="48.08981" lon="-4.29873">
        <ele>20.81</ele>
        <time>2011-07-08T15:33:16Z</time>
      </trkpt>
      <trkpt lat="48.08978" lon="-4.29874">
        <ele>22.25</ele>
        <time>2011-07-08T15:33:20Z</time>
      </trkpt>
      <trkpt lat="48.08975" lon="-4.29872">
        <ele>22.73</ele>
        <time>2011-07-08T15:33:23Z</time>
      </trkpt>
      <trkpt lat="48.08968" lon="-4.29873">
        <ele>23.69</ele>
        <time>2011-07-08T15:33:29Z</time>
      </trkpt>
      <trkpt lat="48.08958" lon="-4.29872">
        <ele>24.65</ele>
        <time>2011-07-08T15:33:37Z</time>
      </trkpt>
      <trkpt lat="48.08951" lon="-4.29873">
        <ele>26.57</ele>
        <time>2011-07-08T15:33:50Z</time>
      </trkpt>
      <trkpt lat="48.08952" lon="-4.29874">
        <ele>26.57</ele>
        <time>2011-07-08T15:33:52Z</time>
      </trkpt>
      <trkpt lat="48.08941" lon="-4.29874">
        <ele>25.13</ele>
        <time>2011-07-08T15:34:02Z</time>
      </trkpt>
      <trkpt lat="48.08927" lon="-4.29875">
        <ele>26.09</ele>
        <time>2011-07-08T15:34:15Z</time>
      </trkpt>
      <trkpt lat="48.08921" lon="-4.29876">
        <ele>26.09</ele>
        <time>2011-07-08T15:34:21Z</time>
      </trkpt>
      <trkpt lat="48.08916" lon="-4.29877">
        <ele>26.57</ele>
        <time>2011-07-08T15:34:25Z</time>
      </trkpt>
      <trkpt lat="48.08915" lon="-4.29877">
        <ele>26.57</ele>
        <time>2011-07-08T15:34:27Z</time>
      </trkpt>
      <trkpt lat="48.08911" lon="-4.29877">
        <ele>27.05</ele>
        <time>2011-07-08T15:34:30Z</time>
      </trkpt>
      <trkpt lat="48.089" lon="-4.29877">
        <ele>28.02</ele>
        <time>2011-07-08T15:34:40Z</time>
      </trkpt>
      <trkpt lat="48.08896" lon="-4.29878">
        <ele>28.5</ele>
        <time>2011-07-08T15:34:44Z</time>
      </trkpt>
      <trkpt lat="48.08886" lon="-4.29876">
        <ele>29.94</ele>
        <time>2011-07-08T15:34:55Z</time>
      </trkpt>
      <trkpt lat="48.08877" lon="-4.29879">
        <ele>33.78</ele>
        <time>2011-07-08T15:35:02Z</time>
      </trkpt>
      <trkpt lat="48.08874" lon="-4.29879">
        <ele>36.67</ele>
        <time>2011-07-08T15:35:05Z</time>
      </trkpt>
      <trkpt lat="48.08863" lon="-4.29882">
        <ele>40.03</ele>
        <time>2011-07-08T15:35:15Z</time>
      </trkpt>
      <trkpt lat="48.08854" lon="-4.29885">
        <ele>40.99</ele>
        <time>2011-07-08T15:35:25Z</time>
      </trkpt>
      <trkpt lat="48.08849" lon="-4.29887">
        <ele>41.47</ele>
        <time>2011-07-08T15:35:30Z</time>
      </trkpt>
      <trkpt lat="48.08847" lon="-4.29887">
        <ele>40.99</ele>
        <time>2011-07-08T15:35:32Z</time>
      </trkpt>
      <trkpt lat="48.08836" lon="-4.29887">
        <ele>41.95</ele>
        <time>2011-07-08T15:35:43Z</time>
      </trkpt>
      <trkpt lat="48.08826" lon="-4.29888">
        <ele>41.47</ele>
        <time>2011-07-08T15:35:54Z</time>
      </trkpt>
      <trkpt lat="48.08818" lon="-4.29891">
        <ele>41.47</ele>
        <time>2011-07-08T15:36:05Z</time>
      </trkpt>
      <trkpt lat="48.08816" lon="-4.29892">
        <ele>41.95</ele>
        <time>2011-07-08T15:36:07Z</time>
      </trkpt>
      <trkpt lat="48.08812" lon="-4.29893">
        <ele>42.44</ele>
        <time>2011-07-08T15:36:10Z</time>
      </trkpt>
      <trkpt lat="48.08803" lon="-4.29895">
        <ele>41.95</ele>
        <time>2011-07-08T15:36:21Z</time>
      </trkpt>
      <trkpt lat="48.08793" lon="-4.29896">
        <ele>42.44</ele>
        <time>2011-07-08T15:36:31Z</time>
      </trkpt>
      <trkpt lat="48.08782" lon="-4.29902">
        <ele>42.44</ele>
        <time>2011-07-08T15:36:42Z</time>
      </trkpt>
      <trkpt lat="48.08777" lon="-4.29903">
        <ele>42.92</ele>
        <time>2011-07-08T15:36:47Z</time>
      </trkpt>
      <trkpt lat="48.08775" lon="-4.29906">
        <ele>42.92</ele>
        <time>2011-07-08T15:36:51Z</time>
      </trkpt>
      <trkpt lat="48.08767" lon="-4.29915">
        <ele>41.95</ele>
        <time>2011-07-08T15:36:58Z</time>
      </trkpt>
      <trkpt lat="48.08762" lon="-4.29922">
        <ele>40.99</ele>
        <time>2011-07-08T15:37:06Z</time>
      </trkpt>
      <trkpt lat="48.08762" lon="-4.29925">
        <ele>40.99</ele>
        <time>2011-07-08T15:37:10Z</time>
      </trkpt>
      <trkpt lat="48.08761" lon="-4.29932">
        <ele>40.51</ele>
        <time>2011-07-08T15:37:18Z</time>
      </trkpt>
      <trkpt lat="48.08762" lon="-4.29938">
        <ele>40.99</ele>
        <time>2011-07-08T15:37:22Z</time>
      </trkpt>
      <trkpt lat="48.08763" lon="-4.29943">
        <ele>41.47</ele>
        <time>2011-07-08T15:37:25Z</time>
      </trkpt>
      <trkpt lat="48.08764" lon="-4.29951">
        <ele>41.47</ele>
        <time>2011-07-08T15:37:29Z</time>
      </trkpt>
      <trkpt lat="48.08762" lon="-4.29971">
        <ele>43.4</ele>
        <time>2011-07-08T15:37:39Z</time>
      </trkpt>
      <trkpt lat="48.08762" lon="-4.29973">
        <ele>43.88</ele>
        <time>2011-07-08T15:37:41Z</time>
      </trkpt>
      <trkpt lat="48.0876" lon="-4.29978">
        <ele>44.36</ele>
        <time>2011-07-08T15:37:49Z</time>
      </trkpt>
      <trkpt lat="48.08759" lon="-4.29992">
        <ele>43.88</ele>
        <time>2011-07-08T15:37:58Z</time>
      </trkpt>
      <trkpt lat="48.08757" lon="-4.29998">
        <ele>44.84</ele>
        <time>2011-07-08T15:38:02Z</time>
      </trkpt>
      <trkpt lat="48.08755" lon="-4.30003">
        <ele>45.32</ele>
        <time>2011-07-08T15:38:06Z</time>
      </trkpt>
      <trkpt lat="48.08754" lon="-4.3001">
        <ele>45.32</ele>
        <time>2011-07-08T15:38:12Z</time>
      </trkpt>
      <trkpt lat="48.08751" lon="-4.30018">
        <ele>45.8</ele>
        <time>2011-07-08T15:38:20Z</time>
      </trkpt>
      <trkpt lat="48.08742" lon="-4.30013">
        <ele>46.76</ele>
        <time>2011-07-08T15:38:31Z</time>
      </trkpt>
      <trkpt lat="48.08736" lon="-4.30007">
        <ele>47.24</ele>
        <time>2011-07-08T15:38:41Z</time>
      </trkpt>
      <trkpt lat="48.08729" lon="-4.30003">
        <ele>47.72</ele>
        <time>2011-07-08T15:38:52Z</time>
      </trkpt>
      <trkpt lat="48.08715" lon="-4.29999">
        <ele>48.2</ele>
        <time>2011-07-08T15:39:08Z</time>
      </trkpt>
      <trkpt lat="48.08703" lon="-4.30002">
        <ele>53.49</ele>
        <time>2011-07-08T15:39:24Z</time>
      </trkpt>
      <trkpt lat="48.08694" lon="-4.29996">
        <ele>58.78</ele>
        <time>2011-07-08T15:39:36Z</time>
      </trkpt>
      <trkpt lat="48.08686" lon="-4.29986">
        <ele>61.18</ele>
        <time>2011-07-08T15:39:47Z</time>
      </trkpt>
      <trkpt lat="48.08674" lon="-4.29968">
        <ele>62.62</ele>
        <time>2011-07-08T15:40:01Z</time>
      </trkpt>
      <trkpt lat="48.08666" lon="-4.29957">
        <ele>62.62</ele>
        <time>2011-07-08T15:40:12Z</time>
      </trkpt>
      <trkpt lat="48.08661" lon="-4.2995">
        <ele>62.14</ele>
        <time>2011-07-08T15:40:16Z</time>
      </trkpt>
      <trkpt lat="48.0865" lon="-4.29936">
        <ele>62.14</ele>
        <time>2011-07-08T15:40:26Z</time>
      </trkpt>
      <trkpt lat="48.0865" lon="-4.29936">
        <ele>62.14</ele>
        <time>2011-07-08T15:40:27Z</time>
      </trkpt>
      <trkpt lat="48.08643" lon="-4.29924">
        <ele>62.62</ele>
        <time>2011-07-08T15:40:35Z</time>
      </trkpt>
      <trkpt lat="48.08636" lon="-4.29912">
        <ele>61.18</ele>
        <time>2011-07-08T15:40:45Z</time>
      </trkpt>
      <trkpt lat="48.08629" lon="-4.29902">
        <ele>61.66</ele>
        <time>2011-07-08T15:40:52Z</time>
      </trkpt>
      <trkpt lat="48.08626" lon="-4.29899">
        <ele>62.62</ele>
        <time>2011-07-08T15:40:55Z</time>
      </trkpt>
      <trkpt lat="48.08619" lon="-4.29884">
        <ele>65.03</ele>
        <time>2011-07-08T15:41:05Z</time>
      </trkpt>
      <trkpt lat="48.08615" lon="-4.29873">
        <ele>67.43</ele>
        <time>2011-07-08T15:41:14Z</time>
      </trkpt>
      <trkpt lat="48.08615" lon="-4.29873">
        <ele>67.43</ele>
        <time>2011-07-08T15:41:32Z</time>
      </trkpt>
      <trkpt lat="48.08615" lon="-4.29873">
        <ele>67.43</ele>
        <time>2011-07-08T15:42:00Z</time>
      </trkpt>
      <trkpt lat="48.08615" lon="-4.29873">
        <ele>67.43</ele>
        <time>2011-07-08T15:42:18Z</time>
      </trkpt>
      <trkpt lat="48.08627" lon="-4.29863">
        <ele>74.64</ele>
        <time>2011-07-08T16:48:00Z</time>
      </trkpt>
      <trkpt lat="48.08595" lon="-4.29894">
        <ele>71.27</ele>
        <time>2011-07-08T16:48:18Z</time>
      </trkpt>
      <trkpt lat="48.08606" lon="-4.29885">
        <ele>70.31</ele>
        <time>2011-07-08T16:48:38Z</time>
      </trkpt>
      <trkpt lat="48.08626" lon="-4.29869">
        <ele>77.52</ele>
        <time>2011-07-08T16:49:10Z</time>
      </trkpt>
    </trkseg>
  </trk>
</gpx>